PORTS® Data Listing: 8531680 Sandy Hook, NJ

CO-OPS RAW PORTS DATA

************************      PRELIMINARY DATA      ************************** 

     THIS RAW DATA HAS NOT BEEN SUBJECT TO THE NATIONAL OCEAN SERVICE'S        
     QUALITY CONTROL OR QUALITY ASSURANCE PROCEDURES AND DOES NOT MEET         
     THE CRITERIA AND STANDARDS OF OFFICIAL NATIONAL OCEAN SERVICE             
     DATA.  IT IS RELEASED FOR LIMITED PUBLIC USE AS PRELIMINARY DATA TO       
     BE USED ONLY WITH APPROPRIATE CAUTION.                                    

************************      PRELIMINARY DATA      ************************** 


       CD   -   Calendar date
       T    -   Time
       TZ   -   Timezone
       PW   -   Predicted water level (feet above MLLW)
       OW   -   Observed water level (feet above MLLW)
       WS   -   Wind speed (knots)
       WD   -   Wind direction (degrees true)
       WG   -   Wind gust (knots)
       AT   -   Air temperature (degrees farenheit)
       WT   -   Water temperature (degrees farenheit)
       AP   -   Air pressure (millibars)
       SA   -   Salinty (PSU - Practical Salinity Units)
       SG   -   Specific gravity
       RH   -   Relative humidity
       AG   -   Air gap (feet)
       VI   -   Visibility (nautical miles)

       ** NOTE **
       A variable that has its data fields filled with "9"s, indicates that
       data was not collected for that sample period.
       **********


STATION NAME: Sandy Hook (8531680)
****************************************************************************************************
    CD       T    TZ    PW     OW    WS   WD   WG    AT    WT    AP    SA    SG     RH    AG   VI
****************************************************************************************************
2019/09/17 00:00 EDT    3.96   4.49    4   92    5  69.3  73.0 1018.0 -9.9 -9.999 -99.9 -99.99 -9.99
2019/09/17 00:06 EDT    3.86   4.42    4   91    5  69.4  73.0 1018.0 -9.9 -9.999 -99.9 -99.99 -9.99
2019/09/17 00:12 EDT    3.76   4.32    3   81    5  69.4  73.0 1018.0 -9.9 -9.999 -99.9 -99.99 -9.99
2019/09/17 00:18 EDT    3.65   4.23    4   91    5  69.3  73.0 1018.0 -9.9 -9.999 -99.9 -99.99 -9.99
2019/09/17 00:24 EDT    3.54   4.05    4   91    5  69.4  73.0 1018.0 -9.9 -9.999 -99.9 -99.99 -9.99
2019/09/17 00:30 EDT    3.42   4.01    4   87    6  69.4  73.2 1018.0 -9.9 -9.999 -99.9 -99.99 -9.99
2019/09/17 00:36 EDT    3.31   3.89    5   83    6  69.4  73.2 1018.1 -9.9 -9.999 -99.9 -99.99 -9.99
2019/09/17 00:42 EDT    3.19   3.78    6   81    9  69.6  73.2 1018.2 -9.9 -9.999 -99.9 -99.99 -9.99
2019/09/17 00:48 EDT    3.08   3.67    6   85    9  70.2  73.2 1018.2 -9.9 -9.999 -99.9 -99.99 -9.99
2019/09/17 00:54 EDT    2.96   3.58    7   79   11  70.2  73.2 1018.2 -9.9 -9.999 -99.9 -99.99 -9.99
2019/09/17 01:00 EDT    2.84   3.46    7   71    9  70.5  73.2 1018.2 -9.9 -9.999 -99.9 -99.99 -9.99
2019/09/17 01:06 EDT    2.72   3.34    7   71   10  70.3  73.2 1018.2 -9.9 -9.999 -99.9 -99.99 -9.99
2019/09/17 01:12 EDT    2.61   3.28    8   71   12  70.2  73.2 1018.3 -9.9 -9.999 -99.9 -99.99 -9.99
2019/09/17 01:18 EDT    2.49   3.17    9   72   12  70.2  73.2 1018.3 -9.9 -9.999 -99.9 -99.99 -9.99
2019/09/17 01:24 EDT    2.38   3.07   10   71   13  70.2  73.2 1018.3 -9.9 -9.999 -99.9 -99.99 -9.99
2019/09/17 01:30 EDT    2.26   2.97   10   66   13  70.5  73.2 1018.4 -9.9 -9.999 -99.9 -99.99 -9.99
2019/09/17 01:36 EDT    2.15   2.91   10   69   13  70.5  73.0 1018.4 -9.9 -9.999 -99.9 -99.99 -9.99
2019/09/17 01:42 EDT    2.04   2.82   11   65   13  70.5  73.0 1018.4 -9.9 -9.999 -99.9 -99.99 -9.99
2019/09/17 01:48 EDT    1.93   2.71    9   72   13  70.3  73.0 1018.4 -9.9 -9.999 -99.9 -99.99 -9.99
2019/09/17 01:54 EDT    1.83   2.61    8   67   14  70.2  73.0 1018.4 -9.9 -9.999 -99.9 -99.99 -9.99
2019/09/17 02:00 EDT    1.73   2.56    9   58   14  70.0  73.0 1018.4 -9.9 -9.999 -99.9 -99.99 -9.99
2019/09/17 02:06 EDT    1.63   2.45    8   57   13  69.6  73.0 1018.4 -9.9 -9.999 -99.9 -99.99 -9.99
2019/09/17 02:12 EDT    1.53   2.32   10   57   13  69.4  73.0 1018.4 -9.9 -9.999 -99.9 -99.99 -9.99
2019/09/17 02:18 EDT    1.43   2.25    8   59   12  69.3  73.0 1018.3 -9.9 -9.999 -99.9 -99.99 -9.99
2019/09/17 02:24 EDT    1.34   2.18    9   64   13  69.1  73.0 1018.4 -9.9 -9.999 -99.9 -99.99 -9.99
2019/09/17 02:30 EDT    1.25   2.08    7   60   11  69.1  73.0 1018.5 -9.9 -9.999 -99.9 -99.99 -9.99
2019/09/17 02:36 EDT    1.17   1.98    7   61   12  68.9  73.0 1018.5 -9.9 -9.999 -99.9 -99.99 -9.99
2019/09/17 02:42 EDT    1.09   1.92    6   65   11  68.9  72.9 1018.5 -9.9 -9.999 -99.9 -99.99 -9.99
2019/09/17 02:48 EDT    1.01   1.86    6   53   11  68.7  72.9 1018.5 -9.9 -9.999 -99.9 -99.99 -9.99
2019/09/17 02:54 EDT    0.93   1.76    8   53   13  68.7  72.9 1018.5 -9.9 -9.999 -99.9 -99.99 -9.99
2019/09/17 03:00 EDT    0.86   1.69    8   50   13  68.5  72.9 1018.6 -9.9 -9.999 -99.9 -99.99 -9.99
2019/09/17 03:06 EDT    0.79   1.62    9   48   12  68.5  72.9 1018.5 -9.9 -9.999 -99.9 -99.99 -9.99
2019/09/17 03:12 EDT    0.73   1.55   11   43   14  68.5  73.0 1018.5 -9.9 -9.999 -99.9 -99.99 -9.99
2019/09/17 03:18 EDT    0.67   1.48   11   45   13  68.4  73.0 1018.6 -9.9 -9.999 -99.9 -99.99 -9.99
2019/09/17 03:24 EDT    0.61   1.41    8   44   12  68.2  73.0 1018.6 -9.9 -9.999 -99.9 -99.99 -9.99
2019/09/17 03:30 EDT    0.56   1.36   10   44   15  68.0  73.0 1018.6 -9.9 -9.999 -99.9 -99.99 -9.99
2019/09/17 03:36 EDT    0.52   1.30   10   46   13  67.8  73.0 1018.6 -9.9 -9.999 -99.9 -99.99 -9.99
2019/09/17 03:42 EDT    0.47   1.22   12   51   16  67.8  73.0 1018.7 -9.9 -9.999 -99.9 -99.99 -9.99
2019/09/17 03:48 EDT    0.44   1.16    8   45   14  67.6  72.9 1018.6 -9.9 -9.999 -99.9 -99.99 -9.99
2019/09/17 03:54 EDT    0.41   1.13   10   56   14  67.5  72.9 1018.6 -9.9 -9.999 -99.9 -99.99 -9.99
2019/09/17 04:00 EDT    0.38   1.09    7   49   15  67.5  72.9 1018.7 -9.9 -9.999 -99.9 -99.99 -9.99
2019/09/17 04:06 EDT    0.36   1.04   10   57   14  67.1  72.9 1018.6 -9.9 -9.999 -99.9 -99.99 -9.99
2019/09/17 04:12 EDT    0.35   1.02   11   56   16  66.9  72.9 1018.6 -9.9 -9.999 -99.9 -99.99 -9.99
2019/09/17 04:18 EDT    0.34   1.01   11   63   15  66.9  72.9 1018.5 -9.9 -9.999 -99.9 -99.99 -9.99
2019/09/17 04:24 EDT    0.34   0.99    9   59   16  66.7  72.9 1018.4 -9.9 -9.999 -99.9 -99.99 -9.99
2019/09/17 04:30 EDT    0.35   1.00   12   58   15  66.6  72.9 1018.4 -9.9 -9.999 -99.9 -99.99 -9.99
2019/09/17 04:36 EDT    0.36   1.03   10   47   14  66.6  72.9 1018.5 -9.9 -9.999 -99.9 -99.99 -9.99
2019/09/17 04:42 EDT    0.38   1.05   11   43   14  66.2  72.9 1018.6 -9.9 -9.999 -99.9 -99.99 -9.99
2019/09/17 04:48 EDT    0.41   1.07   11   48   14  66.0  72.9 1018.6 -9.9 -9.999 -99.9 -99.99 -9.99
2019/09/17 04:54 EDT    0.44   1.11   10   54   13  65.8  72.9 1018.6 -9.9 -9.999 -99.9 -99.99 -9.99
2019/09/17 05:00 EDT    0.49   1.18    9   51   13  65.8  72.9 1018.7 -9.9 -9.999 -99.9 -99.99 -9.99
2019/09/17 05:06 EDT    0.54   1.22    8   48   14  65.7  72.7 1018.7 -9.9 -9.999 -99.9 -99.99 -9.99
2019/09/17 05:12 EDT    0.59   1.29   11   54   15  65.5  72.9 1018.8 -9.9 -9.999 -99.9 -99.99 -9.99
2019/09/17 05:18 EDT    0.66   1.37    9   48   13  65.5  72.9 1019.0 -9.9 -9.999 -99.9 -99.99 -9.99
2019/09/17 05:24 EDT    0.73   1.44    8   54   13  65.3  72.7 1019.1 -9.9 -9.999 -99.9 -99.99 -9.99
2019/09/17 05:30 EDT    0.81   1.54    8   50   13  65.3  72.7 1019.2 -9.9 -9.999 -99.9 -99.99 -9.99
2019/09/17 05:36 EDT    0.90   1.63   10   52   14  65.1  72.7 1019.3 -9.9 -9.999 -99.9 -99.99 -9.99
2019/09/17 05:42 EDT    0.99   1.72    8   48   12  65.1  72.7 1019.3 -9.9 -9.999 -99.9 -99.99 -9.99
2019/09/17 05:48 EDT    1.09   1.83    7   41   11  64.9  72.7 1019.3 -9.9 -9.999 -99.9 -99.99 -9.99
2019/09/17 05:54 EDT    1.19   1.95    8   44   11  64.8  72.7 1019.4 -9.9 -9.999 -99.9 -99.99 -9.99
2019/09/17 06:00 EDT    1.30   2.07   11   40   15  64.8  72.5 1019.4 -9.9 -9.999 -99.9 -99.99 -9.99
2019/09/17 06:06 EDT    1.42   2.14    9   47   13  64.8  72.5 1019.5 -9.9 -9.999 -99.9 -99.99 -9.99
2019/09/17 06:12 EDT    1.54   2.27    9   45   11  64.6  72.5 1019.5 -9.9 -9.999 -99.9 -99.99 -9.99
2019/09/17 06:18 EDT    1.66   2.40   10   46   13  64.6  72.5 1019.6 -9.9 -9.999 -99.9 -99.99 -9.99
2019/09/17 06:24 EDT    1.79   2.50    9   50   15  64.4  72.5 1019.7 -9.9 -9.999 -99.9 -99.99 -9.99
2019/09/17 06:30 EDT    1.92   2.61    9   46   12  64.4  72.5 1019.8 -9.9 -9.999 -99.9 -99.99 -9.99
2019/09/17 06:36 EDT    2.05   2.75   10   43   13  64.4  72.5 1019.8 -9.9 -9.999 -99.9 -99.99 -9.99
2019/09/17 06:42 EDT    2.18   2.86    8   42   13  64.4  72.5 1019.9 -9.9 -9.999 -99.9 -99.99 -9.99
2019/09/17 06:48 EDT    2.32   2.99    8   42   11  64.4  72.5 1020.1 -9.9 -9.999 -99.9 -99.99 -9.99
2019/09/17 06:54 EDT    2.45   3.12    7   42   12  64.4  72.5 1020.1 -9.9 -9.999 -99.9 -99.99 -9.99
2019/09/17 07:00 EDT    2.59   3.25    8   48   12  64.6  72.5 1020.3 -9.9 -9.999 -99.9 -99.99 -9.99
2019/09/17 07:06 EDT    2.72   3.38    7   45   11  64.6  72.3 1020.4 -9.9 -9.999 -99.9 -99.99 -9.99
2019/09/17 07:12 EDT    2.86   3.50    9   42   12  64.6  72.3 1020.4 -9.9 -9.999 -99.9 -99.99 -9.99
2019/09/17 07:18 EDT    2.99   3.62    8   43   11  64.6  72.3 1020.4 -9.9 -9.999 -99.9 -99.99 -9.99
2019/09/17 07:24 EDT    3.12   3.74    7   38   11  64.8  72.3 1020.4 -9.9 -9.999 -99.9 -99.99 -9.99
2019/09/17 07:30 EDT    3.24   3.86    8   37   11  65.1  72.3 1020.5 -9.9 -9.999 -99.9 -99.99 -9.99
2019/09/17 07:36 EDT    3.37   3.97    8   45   12  65.3  72.3 1020.5 -9.9 -9.999 -99.9 -99.99 -9.99
2019/09/17 07:42 EDT    3.48   4.07    8   41   13  65.5  72.1 1020.6 -9.9 -9.999 -99.9 -99.99 -9.99
2019/09/17 07:48 EDT    3.60   4.20   11   41   14  65.5  72.1 1020.6 -9.9 -9.999 -99.9 -99.99 -9.99
2019/09/17 07:54 EDT    3.71   4.29    8   39   12  65.3  72.1 1020.6 -9.9 -9.999 -99.9 -99.99 -9.99
2019/09/17 08:00 EDT    3.82   4.40    8   39   12  65.5  72.1 1020.7 -9.9 -9.999 -99.9 -99.99 -9.99
2019/09/17 08:06 EDT    3.92   4.51    8   41   11  65.5  72.1 1020.7 -9.9 -9.999 -99.9 -99.99 -9.99
2019/09/17 08:12 EDT    4.02   4.61    8   43   13  65.7  72.1 1020.7 -9.9 -9.999 -99.9 -99.99 -9.99
2019/09/17 08:18 EDT    4.11   4.69    7   38   13  65.7  72.1 1020.7 -9.9 -9.999 -99.9 -99.99 -9.99
2019/09/17 08:24 EDT    4.20   4.80   10   41   14  65.8  72.1 1020.8 -9.9 -9.999 -99.9 -99.99 -9.99
2019/09/17 08:30 EDT    4.29   4.87   10   38   13  65.8  72.1 1020.9 -9.9 -9.999 -99.9 -99.99 -9.99
2019/09/17 08:36 EDT    4.37   4.96    7   37   12  66.2  72.1 1020.9 -9.9 -9.999 -99.9 -99.99 -9.99
2019/09/17 08:42 EDT    4.44   5.04    6   50   12  66.6  72.1 1020.9 -9.9 -9.999 -99.9 -99.99 -9.99
2019/09/17 08:48 EDT    4.51   5.11    8   49   12  67.1  72.1 1021.0 -9.9 -9.999 -99.9 -99.99 -9.99
2019/09/17 08:54 EDT    4.58   5.18    9   49   12  66.9  72.1 1021.0 -9.9 -9.999 -99.9 -99.99 -9.99
2019/09/17 09:00 EDT    4.64   5.24    9   52   13  67.1  72.1 1021.0 -9.9 -9.999 -99.9 -99.99 -9.99
2019/09/17 09:06 EDT    4.69   5.30    6   50   13  67.1  72.1 1021.1 -9.9 -9.999 -99.9 -99.99 -9.99
2019/09/17 09:12 EDT    4.75   5.35    8   61   12  67.5  72.1 1021.2 -9.9 -9.999 -99.9 -99.99 -9.99
2019/09/17 09:18 EDT    4.79   5.38    8   45   11  67.1  72.1 1021.2 -9.9 -9.999 -99.9 -99.99 -9.99
2019/09/17 09:24 EDT    4.84   5.46    8   45   11  67.3  72.1 1021.3 -9.9 -9.999 -99.9 -99.99 -9.99
2019/09/17 09:30 EDT    4.87   5.50    9   49   12  67.5  72.1 1021.4 -9.9 -9.999 -99.9 -99.99 -9.99
2019/09/17 09:36 EDT    4.91   5.54    8   58   11  67.1  72.1 1021.4 -9.9 -9.999 -99.9 -99.99 -9.99
2019/09/17 09:42 EDT    4.94   5.58    6   54   12  67.3  72.1 1021.3 -9.9 -9.999 -99.9 -99.99 -9.99
2019/09/17 09:48 EDT    4.97   5.62    7   57   11  67.8  72.1 1021.4 -9.9 -9.999 -99.9 -99.99 -9.99
2019/09/17 09:54 EDT    4.99   5.65    7   53   11  67.6  72.1 1021.4 -9.9 -9.999 -99.9 -99.99 -9.99
2019/09/17 10:00 EDT    5.01   5.68    7   44   11  68.0  72.1 1021.5 -9.9 -9.999 -99.9 -99.99 -9.99
2019/09/17 10:06 EDT    5.02   5.71    7   51   10  67.8  72.1 1021.5 -9.9 -9.999 -99.9 -99.99 -9.99
2019/09/17 10:12 EDT    5.03   5.72    6   61    8  67.8  72.1 1021.5 -9.9 -9.999 -99.9 -99.99 -9.99
2019/09/17 10:18 EDT    5.03   5.73    6   31   10  67.6  72.1 1021.6 -9.9 -9.999 -99.9 -99.99 -9.99
2019/09/17 10:24 EDT    5.03   5.75    5   55    9  68.4  72.1 1021.5 -9.9 -9.999 -99.9 -99.99 -9.99
2019/09/17 10:30 EDT    5.03   5.76    5   48   10  69.1  72.1 1021.5 -9.9 -9.999 -99.9 -99.99 -9.99
2019/09/17 10:36 EDT    5.02   5.72    7   67   10  68.7  72.1 1021.6 -9.9 -9.999 -99.9 -99.99 -9.99
2019/09/17 10:42 EDT    5.01   5.72    7   62   10  68.0  72.1 1021.5 -9.9 -9.999 -99.9 -99.99 -9.99
2019/09/17 10:48 EDT    4.99   5.71    6   71    9  68.5  72.1 1021.5 -9.9 -9.999 -99.9 -99.99 -9.99
2019/09/17 10:54 EDT    4.97   5.69    7   68   10  68.4  72.1 1021.4 -9.9 -9.999 -99.9 -99.99 -9.99
2019/09/17 11:00 EDT    4.94   5.63    7   57   11  68.2  72.1 1021.4 -9.9 -9.999 -99.9 -99.99 -9.99
2019/09/17 11:06 EDT    4.91   5.63    7   62   11  69.3  72.1 1021.4 -9.9 -9.999 -99.9 -99.99 -9.99
2019/09/17 11:12 EDT    4.87   5.55    8   52   11  68.7  72.3 1021.4 -9.9 -9.999 -99.9 -99.99 -9.99
2019/09/17 11:18 EDT    4.83   5.51    8   53   10  69.3  72.3 1021.3 -9.9 -9.999 -99.9 -99.99 -9.99
2019/09/17 11:24 EDT    4.78   5.45    7   45   11  69.3  72.3 1021.3 -9.9 -9.999 -99.9 -99.99 -9.99
2019/09/17 11:30 EDT    4.72   5.37    8   63   13  69.8  72.3 1021.3 -9.9 -9.999 -99.9 -99.99 -9.99
2019/09/17 11:36 EDT    4.67   5.28    7   43   11  69.4  72.3 1021.2 -9.9 -9.999 -99.9 -99.99 -9.99
2019/09/17 11:42 EDT    4.60   5.22    5   47   10  70.2  72.3 1021.2 -9.9 -9.999 -99.9 -99.99 -9.99
2019/09/17 11:48 EDT    4.53   5.11    8   56   13  70.0  72.3 1021.2 -9.9 -9.999 -99.9 -99.99 -9.99
2019/09/17 11:54 EDT    4.46   5.03    5  353   12  70.0  72.3 1021.2 -9.9 -9.999 -99.9 -99.99 -9.99
2019/09/17 12:00 EDT    4.38   4.94    1  280    7  69.1  72.3 1021.2 -9.9 -9.999 -99.9 -99.99 -9.99
2019/09/17 12:06 EDT    4.30   4.85    5  300    7  69.6  72.3 1021.2 -9.9 -9.999 -99.9 -99.99 -9.99
2019/09/17 12:12 EDT    4.21   4.74    7  311    8  69.3  72.3 1021.1 -9.9 -9.999 -99.9 -99.99 -9.99
2019/09/17 12:18 EDT    4.12   4.63    6  292    9  69.3  72.3 1021.1 -9.9 -9.999 -99.9 -99.99 -9.99
2019/09/17 12:24 EDT    4.03   4.52    5  284    6  69.1  72.3 1021.0 -9.9 -9.999 -99.9 -99.99 -9.99
2019/09/17 12:30 EDT    3.93   4.41    4  270    7  69.4  72.3 1020.9 -9.9 -9.999 -99.9 -99.99 -9.99
2019/09/17 12:36 EDT    3.83   4.29    4  269    7  69.4  72.3 1020.9 -9.9 -9.999 -99.9 -99.99 -9.99
2019/09/17 12:42 EDT    3.73   4.18    4  280    8  70.2  72.3 1020.9 -9.9 -9.999 -99.9 -99.99 -9.99
2019/09/17 12:48 EDT    3.63   4.08    7  266    8  70.2  72.3 1021.0 -9.9 -9.999 -99.9 -99.99 -9.99
2019/09/17 12:54 EDT    3.52   3.94    4  260    7  70.2  72.3 1020.9 -9.9 -9.999 -99.9 -99.99 -9.99
2019/09/17 13:00 EDT    3.41   3.84    3  261    5  70.2  72.3 1020.9 -9.9 -9.999 -99.9 -99.99 -9.99
2019/09/17 13:06 EDT    3.30   3.73    5  254    6  69.6  72.3 1020.7 -9.9 -9.999 -99.9 -99.99 -9.99
2019/09/17 13:12 EDT    3.19   3.62    5  276    7  69.6  72.3 1020.7 -9.9 -9.999 -99.9 -99.99 -9.99
2019/09/17 13:18 EDT    3.08   3.52    4  293    8  70.5  72.3 1020.6 -9.9 -9.999 -99.9 -99.99 -9.99
2019/09/17 13:24 EDT    2.97   3.41    4  293    8  70.5  72.3 1020.6 -9.9 -9.999 -99.9 -99.99 -9.99
2019/09/17 13:30 EDT    2.86   3.28    2  353    5  71.4  72.3 1020.4 -9.9 -9.999 -99.9 -99.99 -9.99
2019/09/17 13:36 EDT    2.76   3.20    3  327    6  71.2  72.3 1020.4 -9.9 -9.999 -99.9 -99.99 -9.99
2019/09/17 13:42 EDT    2.65   3.09    3  327    6  71.2  72.3 1020.4 -9.9 -9.999 -99.9 -99.99 -9.99
2019/09/17 13:48 EDT    2.54   2.99    4  355    7  71.8  72.3 1020.4 -9.9 -9.999 -99.9 -99.99 -9.99
2019/09/17 13:54 EDT    2.44   2.87    2   54    5  72.0  72.5 1020.3 -9.9 -9.999 -99.9 -99.99 -9.99
2019/09/17 14:00 EDT    2.33   2.79    5  313    8  72.0  72.5 1020.3 -9.9 -9.999 -99.9 -99.99 -9.99
2019/09/17 14:06 EDT    2.23   2.69    4   69    6  71.8  72.7 1020.2 -9.9 -9.999 -99.9 -99.99 -9.99
2019/09/17 14:12 EDT    2.13   2.60    4   69    6  71.8  72.7 1020.2 -9.9 -9.999 -99.9 -99.99 -9.99
2019/09/17 14:18 EDT    2.04   2.50    4   29    6  71.8  73.0 1020.1 -9.9 -9.999 -99.9 -99.99 -9.99
2019/09/17 14:24 EDT    1.94 -99.99 -999 -999 -999 -99.9 -99.9 -999.9 -9.9 -9.999 -99.9 -99.99 -9.99
2019/09/17 14:30 EDT    1.85 -99.99 -999 -999 -999 -99.9 -99.9 -999.9 -9.9 -9.999 -99.9 -99.99 -9.99
2019/09/17 14:36 EDT    1.76 -99.99 -999 -999 -999 -99.9 -99.9 -999.9 -9.9 -9.999 -99.9 -99.99 -9.99
2019/09/17 14:42 EDT    1.67 -99.99 -999 -999 -999 -99.9 -99.9 -999.9 -9.9 -9.999 -99.9 -99.99 -9.99
2019/09/17 14:48 EDT    1.59   2.06    6  112    8  72.1  73.4 1019.8 -9.9 -9.999 -99.9 -99.99 -9.99
2019/09/17 14:54 EDT    1.51   1.97    3  111   10  72.3  73.4 1019.8 -9.9 -9.999 -99.9 -99.99 -9.99
2019/09/17 15:00 EDT    1.43   1.89    1   88    5  72.3  73.6 1019.7 -9.9 -9.999 -99.9 -99.99 -9.99
2019/09/17 15:06 EDT    1.35   1.84    3    3    8  72.5  73.9 1019.6 -9.9 -9.999 -99.9 -99.99 -9.99
2019/09/17 15:12 EDT    1.28   1.77    3   46    6  72.5  74.1 1019.6 -9.9 -9.999 -99.9 -99.99 -9.99
2019/09/17 15:18 EDT    1.21   1.69    3   84    7  73.0  74.1 1019.6 -9.9 -9.999 -99.9 -99.99 -9.99
2019/09/17 15:24 EDT    1.14   1.63    1    2    7  72.5  74.1 1019.5 -9.9 -9.999 -99.9 -99.99 -9.99
2019/09/17 15:30 EDT    1.08   1.56    1  306    3  72.7  74.1 1019.4 -9.9 -9.999 -99.9 -99.99 -9.99
2019/09/17 15:36 EDT    1.02   1.52    1  124    2  72.7  74.1 1019.4 -9.9 -9.999 -99.9 -99.99 -9.99
2019/09/17 15:42 EDT    0.97   1.47    2  348    4  73.6  74.1 1019.3 -9.9 -9.999 -99.9 -99.99 -9.99
2019/09/17 15:48 EDT    0.91   1.41    2   75    5  73.6  74.1 1019.3 -9.9 -9.999 -99.9 -99.99 -9.99
2019/09/17 15:54 EDT    0.87   1.38    1  307    4  73.8  74.3 1019.4 -9.9 -9.999 -99.9 -99.99 -9.99
2019/09/17 16:00 EDT    0.82   1.33    2  240    5  74.7  74.3 1019.4 -9.9 -9.999 -99.9 -99.99 -9.99
2019/09/17 16:06 EDT    0.78   1.28    4    4    8  74.3  74.3 1019.2 -9.9 -9.999 -99.9 -99.99 -9.99
2019/09/17 16:12 EDT    0.75   1.27    3   49    7  73.9  74.3 1019.2 -9.9 -9.999 -99.9 -99.99 -9.99
2019/09/17 16:18 EDT    0.72   1.25    2  356    6  74.5  74.3 1019.1 -9.9 -9.999 -99.9 -99.99 -9.99
2019/09/17 16:24 EDT    0.69   1.22    4  358    6  74.5  74.1 1019.0 -9.9 -9.999 -99.9 -99.99 -9.99
2019/09/17 16:30 EDT    0.67   1.19    3  346    6  74.3  74.1 1019.0 -9.9 -9.999 -99.9 -99.99 -9.99
2019/09/17 16:36 EDT    0.65   1.21    6    9   10  74.8  74.1 1019.0 -9.9 -9.999 -99.9 -99.99 -9.99
2019/09/17 16:42 EDT    0.64   1.21    4   55    8  74.1  74.1 1019.0 -9.9 -9.999 -99.9 -99.99 -9.99
2019/09/17 16:48 EDT    0.64   1.21    4   33    5  73.6  74.1 1019.0 -9.9 -9.999 -99.9 -99.99 -9.99
2019/09/17 16:54 EDT    0.64   1.23    5   45    6  73.8  74.1 1019.0 -9.9 -9.999 -99.9 -99.99 -9.99
2019/09/17 17:00 EDT    0.65   1.28    3   34    6  74.1  73.9 1019.0 -9.9 -9.999 -99.9 -99.99 -9.99
2019/09/17 17:06 EDT    0.67   1.26    4   21    6  74.1  73.9 1019.0 -9.9 -9.999 -99.9 -99.99 -9.99
2019/09/17 17:12 EDT    0.69   1.32    3   40    5  74.5  73.9 1019.1 -9.9 -9.999 -99.9 -99.99 -9.99
2019/09/17 17:18 EDT    0.71   1.36    4   54    6  74.5  73.9 1019.0 -9.9 -9.999 -99.9 -99.99 -9.99
2019/09/17 17:24 EDT    0.75   1.41    6   56   11  74.3  73.9 1019.0 -9.9 -9.999 -99.9 -99.99 -9.99
2019/09/17 17:30 EDT    0.79   1.44    5   71   10  74.3  73.9 1019.0 -9.9 -9.999 -99.9 -99.99 -9.99
2019/09/17 17:36 EDT    0.84   1.53    4   86    9  73.8  73.8 1019.1 -9.9 -9.999 -99.9 -99.99 -9.99
2019/09/17 17:42 EDT    0.89   1.57    4   84    8  73.2  73.6 1019.2 -9.9 -9.999 -99.9 -99.99 -9.99
2019/09/17 17:48 EDT    0.95   1.64    5   94    9  73.0  73.8 1019.2 -9.9 -9.999 -99.9 -99.99 -9.99
2019/09/17 17:54 EDT    1.02   1.71    6   85    8  73.2  73.6 1019.2 -9.9 -9.999 -99.9 -99.99 -9.99
2019/09/17 18:00 EDT    1.10   1.81    5  101    7  72.9  73.6 1019.2 -9.9 -9.999 -99.9 -99.99 -9.99
2019/09/17 18:06 EDT    1.18   1.89    6   89    7  72.5  73.8 1019.2 -9.9 -9.999 -99.9 -99.99 -9.99
2019/09/17 18:12 EDT    1.26   2.01    5  106    8  72.3  73.8 1019.2 -9.9 -9.999 -99.9 -99.99 -9.99
2019/09/17 18:18 EDT    1.35   2.12    5   97    7  71.8  73.9 1019.3 -9.9 -9.999 -99.9 -99.99 -9.99
2019/09/17 18:24 EDT    1.45   2.22    4  101    7  71.8  73.9 1019.3 -9.9 -9.999 -99.9 -99.99 -9.99
2019/09/17 18:30 EDT    1.55   2.34    6   63   10  71.8  73.8 1019.3 -9.9 -9.999 -99.9 -99.99 -9.99
2019/09/17 18:36 EDT    1.66   2.47    9   57   13  72.5  73.8 1019.3 -9.9 -9.999 -99.9 -99.99 -9.99
2019/09/17 18:42 EDT    1.76   2.58    8   50   14  72.7  73.8 1019.3 -9.9 -9.999 -99.9 -99.99 -9.99
2019/09/17 18:48 EDT    1.88   2.69   12   50   15  72.7  73.8 1019.4 -9.9 -9.999 -99.9 -99.99 -9.99
2019/09/17 18:54 EDT    1.99   2.81   11   49   16  72.5  73.8 1019.4 -9.9 -9.999 -99.9 -99.99 -9.99
2019/09/17 19:00 EDT    2.11   2.94   13   46   16  72.3  73.9 1019.4 -9.9 -9.999 -99.9 -99.99 -9.99
2019/09/17 19:06 EDT    2.22   3.03   12   44   16  72.5  73.9 1019.5 -9.9 -9.999 -99.9 -99.99 -9.99
2019/09/17 19:12 EDT    2.34   3.16   12   47   17  72.3  73.9 1019.5 -9.9 -9.999 -99.9 -99.99 -9.99
2019/09/17 19:18 EDT    2.46   3.28   13   46   20  72.3  73.6 1019.5 -9.9 -9.999 -99.9 -99.99 -9.99
2019/09/17 19:24 EDT    2.58   3.40   11   51   17  72.1  73.8 1019.5 -9.9 -9.999 -99.9 -99.99 -9.99
2019/09/17 19:30 EDT    2.70   3.49    9   46   16  72.1  73.8 1019.6 -9.9 -9.999 -99.9 -99.99 -9.99
2019/09/17 19:36 EDT    2.82   3.63   10   48   16  71.6  73.6 1019.7 -9.9 -9.999 -99.9 -99.99 -9.99
2019/09/17 19:42 EDT    2.93   3.73    8   45   15  71.6  73.6 1019.8 -9.9 -9.999 -99.9 -99.99 -9.99
2019/09/17 19:48 EDT    3.05   3.84    8   51   15  71.4  73.6 1020.0 -9.9 -9.999 -99.9 -99.99 -9.99
2019/09/17 19:54 EDT    3.16   3.95   11   50   14  71.2  73.4 1020.0 -9.9 -9.999 -99.9 -99.99 -9.99
2019/09/17 20:00 EDT    3.27   4.05    8   48   15  71.1  73.4 1020.2 -9.9 -9.999 -99.9 -99.99 -9.99
2019/09/17 20:06 EDT    3.37   4.16    8   54   13  71.1  73.4 1020.2 -9.9 -9.999 -99.9 -99.99 -9.99
2019/09/17 20:12 EDT    3.48   4.24    7   53   10  71.1  73.4 1020.3 -9.9 -9.999 -99.9 -99.99 -9.99
2019/09/17 20:18 EDT    3.57   4.36    8   51   11  70.9  73.4 1020.3 -9.9 -9.999 -99.9 -99.99 -9.99
2019/09/17 20:24 EDT    3.67   4.45    7   55   10  70.9  73.4 1020.4 -9.9 -9.999 -99.9 -99.99 -9.99
2019/09/17 20:30 EDT    3.76   4.53    7   64   10  70.5  73.4 1020.4 -9.9 -9.999 -99.9 -99.99 -9.99
2019/09/17 20:36 EDT    3.85   4.62    8   64   12  70.9  73.4 1020.5 -9.9 -9.999 -99.9 -99.99 -9.99
2019/09/17 20:42 EDT    3.93   4.71    9  117   12  70.9  73.4 1020.5 -9.9 -9.999 -99.9 -99.99 -9.99
2019/09/17 20:48 EDT    4.01   4.78    7  129   11  69.6  73.4 1020.6 -9.9 -9.999 -99.9 -99.99 -9.99
2019/09/17 20:54 EDT    4.08   4.86    7  123   11  69.1  73.4 1020.7 -9.9 -9.999 -99.9 -99.99 -9.99
2019/09/17 21:00 EDT    4.15   4.94    9  121   12  68.9  73.4 1020.7 -9.9 -9.999 -99.9 -99.99 -9.99
2019/09/17 21:06 EDT    4.21   5.00    8  119   12  69.1  73.4 1020.8 -9.9 -9.999 -99.9 -99.99 -9.99
2019/09/17 21:12 EDT    4.27   5.04    7  113   10  69.1  73.4 1020.8 -9.9 -9.999 -99.9 -99.99 -9.99
2019/09/17 21:18 EDT    4.33   5.10    7  114    9  68.9  73.4 1020.8 -9.9 -9.999 -99.9 -99.99 -9.99
2019/09/17 21:24 EDT    4.38   5.17    6  109    8  68.9  73.4 1020.9 -9.9 -9.999 -99.9 -99.99 -9.99
2019/09/17 21:30 EDT    4.43   5.19    6  106   11  68.7  73.4 1020.9 -9.9 -9.999 -99.9 -99.99 -9.99
2019/09/17 21:36 EDT    4.48   5.25    7   84   12  68.9  73.4 1020.8 -9.9 -9.999 -99.9 -99.99 -9.99
2019/09/17 21:42 EDT    4.52   5.30    8  117   11  69.3  73.2 1020.8 -9.9 -9.999 -99.9 -99.99 -9.99
2019/09/17 21:48 EDT    4.55   5.33    9  115   12  68.4  73.0 1020.8 -9.9 -9.999 -99.9 -99.99 -9.99
2019/09/17 21:54 EDT    4.59   5.36    8  121   12  68.2  72.9 1020.8 -9.9 -9.999 -99.9 -99.99 -9.99
2019/09/17 22:00 EDT    4.61   5.41    8  111   11  68.0  72.7 1020.8 -9.9 -9.999 -99.9 -99.99 -9.99
2019/09/17 22:06 EDT    4.64   5.45    8  120   12  67.8  72.7 1020.9 -9.9 -9.999 -99.9 -99.99 -9.99
2019/09/17 22:12 EDT    4.66   5.45    7  122   11  67.1  72.5 1021.0 -9.9 -9.999 -99.9 -99.99 -9.99
2019/09/17 22:18 EDT    4.68   5.47    9  124   12  67.1  72.5 1021.0 -9.9 -9.999 -99.9 -99.99 -9.99
2019/09/17 22:24 EDT    4.69   5.49    6  125   10  67.3  72.5 1021.0 -9.9 -9.999 -99.9 -99.99 -9.99
2019/09/17 22:30 EDT    4.70   5.49    7  105    9  67.1  72.5 1021.0 -9.9 -9.999 -99.9 -99.99 -9.99
2019/09/17 22:36 EDT    4.71   5.49    6  111    9  67.1  72.5 1021.0 -9.9 -9.999 -99.9 -99.99 -9.99
2019/09/17 22:42 EDT    4.71   5.52    6  113    8  66.9  72.5 1021.0 -9.9 -9.999 -99.9 -99.99 -9.99
2019/09/17 22:48 EDT    4.71   5.50    6  104    9  66.7  72.5 1021.0 -9.9 -9.999 -99.9 -99.99 -9.99
2019/09/17 22:54 EDT    4.70   5.50    6  111    9  66.7  72.5 1021.0 -9.9 -9.999 -99.9 -99.99 -9.99
2019/09/17 23:00 EDT    4.69   5.50    5  114    8  66.6  72.5 1021.0 -9.9 -9.999 -99.9 -99.99 -9.99
2019/09/17 23:06 EDT    4.68   5.49    7  102    9  66.6  72.5 1021.1 -9.9 -9.999 -99.9 -99.99 -9.99
2019/09/17 23:12 EDT    4.66   5.48    6  120   10  66.7  72.5 1021.1 -9.9 -9.999 -99.9 -99.99 -9.99
2019/09/17 23:18 EDT    4.63   5.46    4  112    8  66.6  72.5 1021.1 -9.9 -9.999 -99.9 -99.99 -9.99
2019/09/17 23:24 EDT    4.60   5.43    5   98    8  66.2  72.5 1021.1 -9.9 -9.999 -99.9 -99.99 -9.99
2019/09/17 23:30 EDT    4.56   5.41    5  106    8  66.2  72.5 1021.2 -9.9 -9.999 -99.9 -99.99 -9.99
2019/09/17 23:36 EDT    4.52   5.37    4  108    7  66.0  72.5 1021.1 -9.9 -9.999 -99.9 -99.99 -9.99
2019/09/17 23:42 EDT    4.48   5.31    6   97    8  65.8  72.5 1021.1 -9.9 -9.999 -99.9 -99.99 -9.99
2019/09/17 23:48 EDT    4.43   5.25    6  104    9  66.2  72.5 1021.1 -9.9 -9.999 -99.9 -99.99 -9.99
2019/09/17 23:54 EDT    4.37   5.21    6   99    8  66.0  72.5 1021.1 -9.9 -9.999 -99.9 -99.99 -9.99
2019/09/18 00:00 EDT    4.31   5.14    6  114    8  66.2  72.5 1021.1 -9.9 -9.999 -99.9 -99.99 -9.99
2019/09/18 00:06 EDT    4.24   5.08    5   94   11  66.0  72.5 1021.1 -9.9 -9.999 -99.9 -99.99 -9.99
2019/09/18 00:12 EDT    4.17   5.03    6  102    8  66.0  72.7 1021.2 -9.9 -9.999 -99.9 -99.99 -9.99
2019/09/18 00:18 EDT    4.10   4.95    5   99    8  66.2  72.7 1021.1 -9.9 -9.999 -99.9 -99.99 -9.99
2019/09/18 00:24 EDT    4.01   4.89    5   90    8  65.8  72.7 1021.1 -9.9 -9.999 -99.9 -99.99 -9.99
2019/09/18 00:30 EDT    3.93   4.81    6   96    8  65.8  72.7 1021.1 -9.9 -9.999 -99.9 -99.99 -9.99
2019/09/18 00:36 EDT    3.84   4.73    5   96    8  66.0  72.7 1021.1 -9.9 -9.999 -99.9 -99.99 -9.99
2019/09/18 00:42 EDT    3.74   4.64    8   92   10  65.8  72.7 1021.0 -9.9 -9.999 -99.9 -99.99 -9.99
2019/09/18 00:48 EDT    3.65   4.53    6   92    9  65.8  72.7 1021.0 -9.9 -9.999 -99.9 -99.99 -9.99
2019/09/18 00:54 EDT    3.55   4.43    4   92    6  66.0  72.7 1021.2 -9.9 -9.999 -99.9 -99.99 -9.99
2019/09/18 01:00 EDT    3.44   4.33    5   88    8  65.5  72.7 1021.2 -9.9 -9.999 -99.9 -99.99 -9.99
2019/09/18 01:06 EDT    3.34   4.21    6   91    8  65.7  72.7 1021.2 -9.9 -9.999 -99.9 -99.99 -9.99
2019/09/18 01:12 EDT    3.23   4.12    6   88    8  65.7  72.7 1021.2 -9.9 -9.999 -99.9 -99.99 -9.99
2019/09/18 01:18 EDT    3.12   4.03    6   97    9  65.7  72.7 1021.3 -9.9 -9.999 -99.9 -99.99 -9.99
2019/09/18 01:24 EDT    3.00   3.91    6   79    8  65.8  72.7 1021.4 -9.9 -9.999 -99.9 -99.99 -9.99
2019/09/18 01:30 EDT    2.89   3.83    7   86    9  65.7  72.7 1021.4 -9.9 -9.999 -99.9 -99.99 -9.99
2019/09/18 01:36 EDT    2.78   3.74    6   84    8  66.0  72.7 1021.4 -9.9 -9.999 -99.9 -99.99 -9.99
2019/09/18 01:42 EDT    2.66   3.65    6   92   10  65.8  72.7 1021.5 -9.9 -9.999 -99.9 -99.99 -9.99
2019/09/18 01:48 EDT    2.55   3.54    4   84    9  65.7  72.7 1021.5 -9.9 -9.999 -99.9 -99.99 -9.99
2019/09/18 01:54 EDT    2.44   3.44    5   89    7  65.5  72.7 1021.5 -9.9 -9.999 -99.9 -99.99 -9.99
2019/09/18 02:00 EDT    2.32   3.36    6   90   10  65.3  72.7 1021.4 -9.9 -9.999 -99.9 -99.99 -9.99
2019/09/18 02:06 EDT    2.21   3.25    6   80   11  65.3  72.7 1021.4 -9.9 -9.999 -99.9 -99.99 -9.99
2019/09/18 02:12 EDT    2.11   3.14    6   83    7  65.5  72.7 1021.3 -9.9 -9.999 -99.9 -99.99 -9.99
2019/09/18 02:18 EDT    2.00   3.06    6   86    8  65.5  72.5 1021.2 -9.9 -9.999 -99.9 -99.99 -9.99
2019/09/18 02:24 EDT    1.89   2.96    4   80    9  65.3  72.5 1021.3 -9.9 -9.999 -99.9 -99.99 -9.99
2019/09/18 02:30 EDT    1.79   2.86    6   67    9  65.1  72.5 1021.4 -9.9 -9.999 -99.9 -99.99 -9.99
2019/09/18 02:36 EDT    1.69   2.76    6   90   10  65.3  72.5 1021.4 -9.9 -9.999 -99.9 -99.99 -9.99
2019/09/18 02:42 EDT    1.60   2.66    7   79   10  65.1  72.5 1021.3 -9.9 -9.999 -99.9 -99.99 -9.99
2019/09/18 02:48 EDT    1.50   2.56    5   61    9  65.3  72.5 1021.4 -9.9 -9.999 -99.9 -99.99 -9.99
2019/09/18 02:54 EDT    1.42   2.45    7   64   11  65.3  72.5 1021.4 -9.9 -9.999 -99.9 -99.99 -9.99
2019/09/18 03:00 EDT    1.33   2.36    8   64   10  64.9  72.5 1021.4 -9.9 -9.999 -99.9 -99.99 -9.99
2019/09/18 03:06 EDT    1.25   2.27    8   58   11  64.6  72.5 1021.4 -9.9 -9.999 -99.9 -99.99 -9.99
2019/09/18 03:12 EDT    1.17   2.17    8   60   11  64.4  72.3 1021.4 -9.9 -9.999 -99.9 -99.99 -9.99
2019/09/18 03:18 EDT    1.09   2.07    6   60   12  64.4  72.3 1021.5 -9.9 -9.999 -99.9 -99.99 -9.99
2019/09/18 03:24 EDT    1.02   2.00    6   58   11  64.2  72.3 1021.5 -9.9 -9.999 -99.9 -99.99 -9.99
2019/09/18 03:30 EDT    0.96   1.94    7   58   11  64.2  72.3 1021.5 -9.9 -9.999 -99.9 -99.99 -9.99
2019/09/18 03:36 EDT    0.89   1.85    7   64   11  64.2  72.3 1021.5 -9.9 -9.999 -99.9 -99.99 -9.99
2019/09/18 03:42 EDT    0.83   1.79    6   62   11  64.2  72.3 1021.5 -9.9 -9.999 -99.9 -99.99 -9.99
2019/09/18 03:48 EDT    0.78   1.74    6   63   11  64.2  72.3 1021.4 -9.9 -9.999 -99.9 -99.99 -9.99
2019/09/18 03:54 EDT    0.73   1.69    9   59   12  64.2  72.3 1021.4 -9.9 -9.999 -99.9 -99.99 -9.99
2019/09/18 04:00 EDT    0.68   1.63    7   66   10  64.0  72.3 1021.4 -9.9 -9.999 -99.9 -99.99 -9.99
2019/09/18 04:06 EDT    0.64   1.60    7   58   11  64.0  72.3 1021.5 -9.9 -9.999 -99.9 -99.99 -9.99
2019/09/18 04:12 EDT    0.60   1.55    9   67   12  63.9  72.3 1021.6 -9.9 -9.999 -99.9 -99.99 -9.99
2019/09/18 04:18 EDT    0.57   1.51   10   55   13  63.9  72.3 1021.6 -9.9 -9.999 -99.9 -99.99 -9.99
2019/09/18 04:24 EDT    0.54   1.48   10   61   12  63.5  72.3 1021.6 -9.9 -9.999 -99.9 -99.99 -9.99
2019/09/18 04:30 EDT    0.52   1.45    7   60   13  63.5  72.1 1021.6 -9.9 -9.999 -99.9 -99.99 -9.99
2019/09/18 04:36 EDT    0.50   1.42    8   59   11  63.5  72.1 1021.6 -9.9 -9.999 -99.9 -99.99 -9.99
2019/09/18 04:42 EDT    0.49   1.41    9   56   11  63.3  72.1 1021.6 -9.9 -9.999 -99.9 -99.99 -9.99
2019/09/18 04:48 EDT    0.49   1.40    8   55   11  63.3  72.1 1021.6 -9.9 -9.999 -99.9 -99.99 -9.99
2019/09/18 04:54 EDT    0.49   1.39    8   66   11  63.3  72.1 1021.5 -9.9 -9.999 -99.9 -99.99 -9.99
2019/09/18 05:00 EDT    0.49   1.38    9   66   11  63.1  72.1 1021.5 -9.9 -9.999 -99.9 -99.99 -9.99
2019/09/18 05:06 EDT    0.50   1.37    8   61   13  63.1  72.1 1021.5 -9.9 -9.999 -99.9 -99.99 -9.99
2019/09/18 05:12 EDT    0.52   1.39    8   61   12  63.0  72.1 1021.6 -9.9 -9.999 -99.9 -99.99 -9.99
2019/09/18 05:18 EDT    0.54   1.42    9   56   12  63.0  72.1 1021.6 -9.9 -9.999 -99.9 -99.99 -9.99
2019/09/18 05:24 EDT    0.57   1.47    9   58   13  63.0  72.0 1021.7 -9.9 -9.999 -99.9 -99.99 -9.99
2019/09/18 05:30 EDT    0.61   1.51   10   55   12  63.0  72.0 1021.8 -9.9 -9.999 -99.9 -99.99 -9.99
2019/09/18 05:36 EDT    0.66   1.57   10   55   12  62.8  72.0 1021.9 -9.9 -9.999 -99.9 -99.99 -9.99
2019/09/18 05:42 EDT    0.71   1.64    8   45   13  63.0  72.0 1021.9 -9.9 -9.999 -99.9 -99.99 -9.99
2019/09/18 05:48 EDT    0.76   1.69    6   54   11  63.0  72.0 1022.1 -9.9 -9.999 -99.9 -99.99 -9.99
2019/09/18 05:54 EDT    0.83   1.80    7   50   10  63.0  72.0 1022.1 -9.9 -9.999 -99.9 -99.99 -9.99
2019/09/18 06:00 EDT    0.90   1.88    8   58   11  63.0  72.0 1022.2 -9.9 -9.999 -99.9 -99.99 -9.99
2019/09/18 06:06 EDT    0.97   1.96    7   60   12  63.1  72.0 1022.3 -9.9 -9.999 -99.9 -99.99 -9.99
2019/09/18 06:12 EDT    1.06   2.02    7   68   10  63.0  72.0 1022.3 -9.9 -9.999 -99.9 -99.99 -9.99
2019/09/18 06:18 EDT    1.14   2.16    7   65   12  62.6  72.0 1022.4 -9.9 -9.999 -99.9 -99.99 -9.99
2019/09/18 06:24 EDT    1.24   2.26    8   60   14  62.8  72.0 1022.5 -9.9 -9.999 -99.9 -99.99 -9.99
2019/09/18 06:30 EDT    1.34   2.36    9   61   12  62.8  72.0 1022.6 -9.9 -9.999 -99.9 -99.99 -9.99
2019/09/18 06:36 EDT    1.45   2.48    7   63   14  62.8  72.0 1022.6 -9.9 -9.999 -99.9 -99.99 -9.99
2019/09/18 06:42 EDT    1.56   2.60   10   67   14  62.6  72.0 1022.7 -9.9 -9.999 -99.9 -99.99 -9.99
2019/09/18 06:48 EDT    1.67   2.71    9   63   13  62.8  72.0 1022.7 -9.9 -9.999 -99.9 -99.99 -9.99
2019/09/18 06:54 EDT    1.79   2.83    8   65   13  63.0  71.8 1022.9 -9.9 -9.999 -99.9 -99.99 -9.99
2019/09/18 07:00 EDT    1.91   2.97    9   63   14  63.0  71.8 1023.0 -9.9 -9.999 -99.9 -99.99 -9.99
2019/09/18 07:06 EDT    2.04   3.08    9   61   14  62.8  71.8 1023.0 -9.9 -9.999 -99.9 -99.99 -9.99
2019/09/18 07:12 EDT    2.16   3.20   10   67   13  63.0  71.8 1023.1 -9.9 -9.999 -99.9 -99.99 -9.99
2019/09/18 07:18 EDT    2.29   3.32    7   54   13  62.8  71.8 1023.2 -9.9 -9.999 -99.9 -99.99 -9.99
2019/09/18 07:24 EDT    2.42   3.46    7   54   13  63.1  71.8 1023.3 -9.9 -9.999 -99.9 -99.99 -9.99
2019/09/18 07:30 EDT    2.55   3.55   10   55   13  63.1  71.8 1023.4 -9.9 -9.999 -99.9 -99.99 -9.99
2019/09/18 07:36 EDT    2.68   3.65   10   66   14  63.1  71.6 1023.5 -9.9 -9.999 -99.9 -99.99 -9.99
2019/09/18 07:42 EDT    2.81   3.78   10   51   14  62.6  71.8 1023.5 -9.9 -9.999 -99.9 -99.99 -9.99
2019/09/18 07:48 EDT    2.94   3.93   10   65   13  62.8  71.8 1023.6 -9.9 -9.999 -99.9 -99.99 -9.99
2019/09/18 07:54 EDT    3.07   4.01   11   59   13  63.0  71.6 1023.6 -9.9 -9.999 -99.9 -99.99 -9.99
2019/09/18 08:00 EDT    3.20   4.14   10   53   14  63.5  71.6 1023.5 -9.9 -9.999 -99.9 -99.99 -9.99
2019/09/18 08:06 EDT    3.32   4.26    8   60   13  63.1  71.6 1023.5 -9.9 -9.999 -99.9 -99.99 -9.99
2019/09/18 08:12 EDT    3.44   4.37   10   45   13  63.3  71.6 1023.6 -9.9 -9.999 -99.9 -99.99 -9.99
2019/09/18 08:18 EDT    3.56   4.47   11   42   16  63.0  71.6 1023.7 -9.9 -9.999 -99.9 -99.99 -9.99
2019/09/18 08:24 EDT    3.67   4.58   11   50   16  63.1  71.6 1023.7 -9.9 -9.999 -99.9 -99.99 -9.99
2019/09/18 08:30 EDT    3.78   4.68   11   57   14  63.1  71.6 1023.7 -9.9 -9.999 -99.9 -99.99 -9.99
2019/09/18 08:36 EDT    3.88   4.76   12   62   15  63.5  71.8 1023.7 -9.9 -9.999 -99.9 -99.99 -9.99
2019/09/18 08:42 EDT    3.98   4.84   11   60   16  63.3  71.8 1023.7 -9.9 -9.999 -99.9 -99.99 -9.99
2019/09/18 08:48 EDT    4.08   4.92   11   51   14  63.9  71.8 1023.8 -9.9 -9.999 -99.9 -99.99 -9.99
2019/09/18 08:54 EDT    4.17   5.02    9   73   14  63.5  71.8 1023.8 -9.9 -9.999 -99.9 -99.99 -9.99
2019/09/18 09:00 EDT    4.25   5.09   10   53   13  63.5  71.8 1023.9 -9.9 -9.999 -99.9 -99.99 -9.99
2019/09/18 09:06 EDT    4.33   5.15    9   68   15  63.7  71.8 1024.0 -9.9 -9.999 -99.9 -99.99 -9.99
2019/09/18 09:12 EDT    4.41   5.24    8   56   13  63.5  71.8 1024.0 -9.9 -9.999 -99.9 -99.99 -9.99
2019/09/18 09:18 EDT    4.48   5.30    8   51   12  63.9  71.8 1024.0 -9.9 -9.999 -99.9 -99.99 -9.99
2019/09/18 09:24 EDT    4.54   5.37    9   60   12  64.2  71.8 1024.1 -9.9 -9.999 -99.9 -99.99 -9.99
2019/09/18 09:30 EDT    4.60   5.44   10   64   13  64.2  71.8 1024.2 -9.9 -9.999 -99.9 -99.99 -9.99
2019/09/18 09:36 EDT    4.66   5.49    9   62   12  63.5  71.8 1024.3 -9.9 -9.999 -99.9 -99.99 -9.99
2019/09/18 09:42 EDT    4.71   5.57    9   63   12  63.9  71.8 1024.3 -9.9 -9.999 -99.9 -99.99 -9.99
2019/09/18 09:48 EDT    4.76   5.64    9   69   14  64.4  71.8 1024.4 -9.9 -9.999 -99.9 -99.99 -9.99
2019/09/18 09:54 EDT    4.80   5.70    9   56   13  63.7  71.8 1024.4 -9.9 -9.999 -99.9 -99.99 -9.99
2019/09/18 10:00 EDT    4.84   5.78    8   58   12  63.7  72.0 1024.4 -9.9 -9.999 -99.9 -99.99 -9.99
2019/09/18 10:06 EDT    4.87   5.83    8   75   12  63.7  72.0 1024.3 -9.9 -9.999 -99.9 -99.99 -9.99
2019/09/18 10:12 EDT    4.90   5.90    8   67   11  63.7  72.0 1024.3 -9.9 -9.999 -99.9 -99.99 -9.99
2019/09/18 10:18 EDT    4.92   5.93    8   63   10  63.9  72.0 1024.3 -9.9 -9.999 -99.9 -99.99 -9.99
2019/09/18 10:24 EDT    4.94   5.96    7   50   11  63.5  72.1 1024.2 -9.9 -9.999 -99.9 -99.99 -9.99
2019/09/18 10:30 EDT    4.96   5.97    6   59   11  63.5  72.1 1024.2 -9.9 -9.999 -99.9 -99.99 -9.99
2019/09/18 10:36 EDT    4.98   6.05    7   40   10  63.9  72.1 1024.2 -9.9 -9.999 -99.9 -99.99 -9.99
2019/09/18 10:42 EDT    4.99   6.05    9   73   12  64.0  72.1 1024.2 -9.9 -9.999 -99.9 -99.99 -9.99
2019/09/18 10:48 EDT    4.99   6.08   11   63   14  64.4  72.1 1024.3 -9.9 -9.999 -99.9 -99.99 -9.99
2019/09/18 10:54 EDT    4.99   6.08    9   56   13  64.8  72.1 1024.3 -9.9 -9.999 -99.9 -99.99 -9.99
2019/09/18 11:00 EDT    4.99   6.11    7   55   11  64.6  72.1 1024.4 -9.9 -9.999 -99.9 -99.99 -9.99
2019/09/18 11:06 EDT    4.99   6.12    7   78   12  64.2  72.1 1024.4 -9.9 -9.999 -99.9 -99.99 -9.99
2019/09/18 11:12 EDT    4.98   6.12    8   86   12  64.0  72.1 1024.4 -9.9 -9.999 -99.9 -99.99 -9.99
2019/09/18 11:18 EDT    4.96   6.10    8   51   13  63.7  72.1 1024.4 -9.9 -9.999 -99.9 -99.99 -9.99
2019/09/18 11:24 EDT    4.94   6.10   12   58   15  65.3  72.1 1024.3 -9.9 -9.999 -99.9 -99.99 -9.99
2019/09/18 11:30 EDT    4.92   6.08   10   58   13  64.9  72.1 1024.3 -9.9 -9.999 -99.9 -99.99 -9.99
2019/09/18 11:36 EDT    4.90   6.06   11   47   16  65.5  72.1 1024.3 -9.9 -9.999 -99.9 -99.99 -9.99
2019/09/18 11:42 EDT    4.86   6.02    8   31   15  65.1  72.1 1024.3 -9.9 -9.999 -99.9 -99.99 -9.99
2019/09/18 11:48 EDT    4.83   6.02   10   57   16  65.7  72.1 1024.3 -9.9 -9.999 -99.9 -99.99 -9.99
2019/09/18 11:54 EDT    4.79   5.96   10   56   13  65.1  72.1 1024.3 -9.9 -9.999 -99.9 -99.99 -9.99
2019/09/18 12:00 EDT    4.74   5.93    9   57   14  66.0  72.1 1024.2 -9.9 -9.999 -99.9 -99.99 -9.99
2019/09/18 12:06 EDT    4.69   5.88   10   65   14  66.0  72.1 1024.2 -9.9 -9.999 -99.9 -99.99 -9.99
2019/09/18 12:12 EDT    4.64   5.81   11   46   14  65.7  72.1 1024.2 -9.9 -9.999 -99.9 -99.99 -9.99
2019/09/18 12:18 EDT    4.58   5.76   12   57   15  65.8  72.1 1024.2 -9.9 -9.999 -99.9 -99.99 -9.99
2019/09/18 12:24 EDT    4.52   5.66    9   47   14  65.8  72.1 1024.2 -9.9 -9.999 -99.9 -99.99 -9.99
2019/09/18 12:30 EDT    4.45   5.58    9   49   13  66.2  72.1 1024.2 -9.9 -9.999 -99.9 -99.99 -9.99
2019/09/18 12:36 EDT    4.38   5.50   10   61   14  66.2  72.1 1024.2 -9.9 -9.999 -99.9 -99.99 -9.99
2019/09/18 12:42 EDT    4.30   5.40    9   51   12  65.5  72.1 1024.2 -9.9 -9.999 -99.9 -99.99 -9.99
2019/09/18 12:48 EDT    4.22   5.31    9   54   13  66.0  72.1 1024.1 -9.9 -9.999 -99.9 -99.99 -9.99
2019/09/18 12:54 EDT    4.13   5.22    9   44   12  66.4  72.1 1024.1 -9.9 -9.999 -99.9 -99.99 -9.99
2019/09/18 13:00 EDT    4.04   5.13    8   44   12  66.0  72.1 1024.1 -9.9 -9.999 -99.9 -99.99 -9.99
2019/09/18 13:06 EDT    3.95   5.02    9   56   13  66.6  72.1 1024.1 -9.9 -9.999 -99.9 -99.99 -9.99
2019/09/18 13:12 EDT    3.85   4.93    9   44   12  66.9  72.1 1024.0 -9.9 -9.999 -99.9 -99.99 -9.99
2019/09/18 13:18 EDT    3.75   4.83    8   61   13  66.9  72.1 1024.0 -9.9 -9.999 -99.9 -99.99 -9.99
2019/09/18 13:24 EDT    3.65   4.72    9   34   14  66.4  72.1 1024.0 -9.9 -9.999 -99.9 -99.99 -9.99
2019/09/18 13:30 EDT    3.55   4.63    8   49   14  66.2  72.1 1023.9 -9.9 -9.999 -99.9 -99.99 -9.99
2019/09/18 13:36 EDT    3.44   4.52    9   49   12  67.1  72.1 1023.9 -9.9 -9.999 -99.9 -99.99 -9.99
2019/09/18 13:42 EDT    3.33   4.42   11   38   15  66.4  72.1 1023.9 -9.9 -9.999 -99.9 -99.99 -9.99
2019/09/18 13:48 EDT    3.23   4.32    9   50   15  66.9  72.1 1023.9 -9.9 -9.999 -99.9 -99.99 -9.99
2019/09/18 13:54 EDT    3.12   4.20    8   49   12  66.9  72.1 1023.9 -9.9 -9.999 -99.9 -99.99 -9.99
2019/09/18 14:00 EDT    3.01   4.10    9   56   13  66.9  72.1 1023.9 -9.9 -9.999 -99.9 -99.99 -9.99
2019/09/18 14:06 EDT    2.90   3.97   10   64   17  66.6  72.1 1023.9 -9.9 -9.999 -99.9 -99.99 -9.99
2019/09/18 14:12 EDT    2.79   3.86   11   65   15  66.7  72.1 1023.9 -9.9 -9.999 -99.9 -99.99 -9.99
2019/09/18 14:18 EDT    2.68   3.76   10   38   14  66.7  72.1 1023.9 -9.9 -9.999 -99.9 -99.99 -9.99
2019/09/18 14:24 EDT    2.58   3.65   10   66   14  66.9  72.1 1023.9 -9.9 -9.999 -99.9 -99.99 -9.99
2019/09/18 14:30 EDT    2.47   3.54    9   61   15  66.7  72.1 1023.8 -9.9 -9.999 -99.9 -99.99 -9.99
2019/09/18 14:36 EDT    2.37   3.46    9   62   15  67.3  72.1 1023.9 -9.9 -9.999 -99.9 -99.99 -9.99
2019/09/18 14:42 EDT    2.27   3.39    9   77   14  66.6  72.0 1023.9 -9.9 -9.999 -99.9 -99.99 -9.99
2019/09/18 14:48 EDT    2.17   3.27   10   72   15  66.9  72.0 1023.9 -9.9 -9.999 -99.9 -99.99 -9.99
2019/09/18 14:54 EDT    2.08   3.19   11   57   14  67.1  72.0 1023.9 -9.9 -9.999 -99.9 -99.99 -9.99
2019/09/18 15:00 EDT    1.98   3.11   10   74   13  66.9  72.0 1024.0 -9.9 -9.999 -99.9 -99.99 -9.99
2019/09/18 15:06 EDT    1.89   3.04   11   63   15  66.7  72.0 1023.9 -9.9 -9.999 -99.9 -99.99 -9.99
2019/09/18 15:12 EDT    1.81   2.93    9   79   12  67.1  72.0 1023.9 -9.9 -9.999 -99.9 -99.99 -9.99
2019/09/18 15:18 EDT    1.72   2.85   10   65   13  67.3  72.0 1024.0 -9.9 -9.999 -99.9 -99.99 -9.99
2019/09/18 15:24 EDT    1.64   2.79    6   57   14  67.3  72.0 1024.0 -9.9 -9.999 -99.9 -99.99 -9.99
2019/09/18 15:30 EDT    1.56   2.73   12   64   17  67.3  72.0 1024.0 -9.9 -9.999 -99.9 -99.99 -9.99
2019/09/18 15:36 EDT    1.49   2.65    9   68   16  67.1  72.0 1024.0 -9.9 -9.999 -99.9 -99.99 -9.99
2019/09/18 15:42 EDT    1.42   2.58    7   55   11  66.7  72.0 1024.1 -9.9 -9.999 -99.9 -99.99 -9.99
2019/09/18 15:48 EDT    1.35   2.56   11   51   15  66.9  72.0 1024.1 -9.9 -9.999 -99.9 -99.99 -9.99
2019/09/18 15:54 EDT    1.29   2.50   10   57   13  66.9  72.0 1024.0 -9.9 -9.999 -99.9 -99.99 -9.99
2019/09/18 16:00 EDT    1.23   2.44   10   46   15  66.6  72.0 1024.1 -9.9 -9.999 -99.9 -99.99 -9.99
2019/09/18 16:06 EDT    1.17   2.40   10   55   17  66.4  72.0 1024.2 -9.9 -9.999 -99.9 -99.99 -9.99
2019/09/18 16:12 EDT    1.12   2.36    9   59   15  66.6  71.8 1024.3 -9.9 -9.999 -99.9 -99.99 -9.99
2019/09/18 16:18 EDT    1.07   2.29    9   63   14  66.6  71.8 1024.3 -9.9 -9.999 -99.9 -99.99 -9.99
2019/09/18 16:24 EDT    1.03   2.25    9   49   15  66.6  71.8 1024.2 -9.9 -9.999 -99.9 -99.99 -9.99
2019/09/18 16:30 EDT    0.98   2.19   10   58   12  67.3  71.8 1024.3 -9.9 -9.999 -99.9 -99.99 -9.99
2019/09/18 16:36 EDT    0.95   2.13   11   45   14  66.9  71.8 1024.2 -9.9 -9.999 -99.9 -99.99 -9.99
2019/09/18 16:42 EDT    0.91   2.08   10   68   15  67.1  72.0 1024.2 -9.9 -9.999 -99.9 -99.99 -9.99
2019/09/18 16:48 EDT    0.88   2.05   10   62   14  66.9  72.0 1024.2 -9.9 -9.999 -99.9 -99.99 -9.99
2019/09/18 16:54 EDT    0.86   2.02   10   67   14  66.7  72.0 1024.3 -9.9 -9.999 -99.9 -99.99 -9.99
2019/09/18 17:00 EDT    0.83   2.00   11   68   13  66.7  71.8 1024.2 -9.9 -9.999 -99.9 -99.99 -9.99
2019/09/18 17:06 EDT    0.82   1.97   10   64   14  66.6  72.0 1024.2 -9.9 -9.999 -99.9 -99.99 -9.99
2019/09/18 17:12 EDT    0.80   1.99   11   81   14  66.6  72.0 1024.2 -9.9 -9.999 -99.9 -99.99 -9.99
2019/09/18 17:18 EDT    0.80   2.00   11   75   15  66.0  71.8 1024.2 -9.9 -9.999 -99.9 -99.99 -9.99
2019/09/18 17:24 EDT    0.79   1.99   11   79   15  66.0  71.8 1024.2 -9.9 -9.999 -99.9 -99.99 -9.99
2019/09/18 17:30 EDT    0.79   2.01   11   69   14  66.4  71.8 1024.1 -9.9 -9.999 -99.9 -99.99 -9.99
2019/09/18 17:36 EDT    0.80   2.03    8   92   15  66.2  71.8 1024.2 -9.9 -9.999 -99.9 -99.99 -9.99
2019/09/18 17:42 EDT    0.81   2.07    9   76   13  66.0  71.8 1024.2 -9.9 -9.999 -99.9 -99.99 -9.99
2019/09/18 17:48 EDT    0.83   2.09    8   75   12  66.0  71.8 1024.2 -9.9 -9.999 -99.9 -99.99 -9.99
2019/09/18 17:54 EDT    0.85   2.12    9   67   14  66.2  71.8 1024.3 -9.9 -9.999 -99.9 -99.99 -9.99
2019/09/18 18:00 EDT    0.88   2.16   10   76   13  66.2  71.8 1024.3 -9.9 -9.999 -99.9 -99.99 -9.99
2019/09/18 18:06 EDT    0.92   2.21   10   64   13  65.8  71.8 1024.3 -9.9 -9.999 -99.9 -99.99 -9.99
2019/09/18 18:12 EDT    0.96   2.26    8   87   13  65.8  71.8 1024.4 -9.9 -9.999 -99.9 -99.99 -9.99
2019/09/18 18:18 EDT    1.01   2.31   11   69   14  65.7  72.0 1024.3 -9.9 -9.999 -99.9 -99.99 -9.99
2019/09/18 18:24 EDT    1.06   2.37   12   78   15  65.5  71.8 1024.2 -9.9 -9.999 -99.9 -99.99 -9.99
2019/09/18 18:30 EDT    1.12   2.44   10   81   16  65.3  71.8 1024.2 -9.9 -9.999 -99.9 -99.99 -9.99
2019/09/18 18:36 EDT    1.18   2.50   11   72   13  65.1  71.8 1024.2 -9.9 -9.999 -99.9 -99.99 -9.99
2019/09/18 18:42 EDT    1.25   2.57   10   77   13  65.1  72.0 1024.2 -9.9 -9.999 -99.9 -99.99 -9.99
2019/09/18 18:48 EDT    1.32   2.66   11   82   16  64.9  72.0 1024.3 -9.9 -9.999 -99.9 -99.99 -9.99
2019/09/18 18:54 EDT    1.40   2.73   11   79   17  64.6  71.8 1024.3 -9.9 -9.999 -99.9 -99.99 -9.99
2019/09/18 19:00 EDT    1.48   2.81    9   79   14  64.4  71.8 1024.3 -9.9 -9.999 -99.9 -99.99 -9.99
2019/09/18 19:06 EDT    1.57   2.91   11   78   16  64.4  71.8 1024.3 -9.9 -9.999 -99.9 -99.99 -9.99
2019/09/18 19:12 EDT    1.66   2.99   11   79   16  64.2  71.8 1024.4 -9.9 -9.999 -99.9 -99.99 -9.99
2019/09/18 19:18 EDT    1.76   3.11   10   77   14  64.2  71.8 1024.3 -9.9 -9.999 -99.9 -99.99 -9.99
2019/09/18 19:24 EDT    1.86   3.20   11   71   16  64.0  71.6 1024.3 -9.9 -9.999 -99.9 -99.99 -9.99
2019/09/18 19:30 EDT    1.96   3.30   11   76   16  64.0  71.4 1024.4 -9.9 -9.999 -99.9 -99.99 -9.99
2019/09/18 19:36 EDT    2.07   3.38   11   76   17  64.0  71.4 1024.5 -9.9 -9.999 -99.9 -99.99 -9.99
2019/09/18 19:42 EDT    2.17   3.50   11   80   17  63.9  71.6 1024.7 -9.9 -9.999 -99.9 -99.99 -9.99
2019/09/18 19:48 EDT    2.28   3.60    9   72   16  63.7  71.6 1024.9 -9.9 -9.999 -99.9 -99.99 -9.99
2019/09/18 19:54 EDT    2.39   3.68   12   71   17  63.7  71.4 1024.9 -9.9 -9.999 -99.9 -99.99 -9.99
2019/09/18 20:00 EDT    2.50   3.78    9   66   17  63.5  71.4 1024.9 -9.9 -9.999 -99.9 -99.99 -9.99
2019/09/18 20:06 EDT    2.61   3.88   12   79   17  63.5  71.4 1025.0 -9.9 -9.999 -99.9 -99.99 -9.99
2019/09/18 20:12 EDT    2.71   3.98   13   67   18  63.3  71.4 1025.1 -9.9 -9.999 -99.9 -99.99 -9.99
2019/09/18 20:18 EDT    2.82   4.06   12   71   17  63.3  71.2 1025.1 -9.9 -9.999 -99.9 -99.99 -9.99
2019/09/18 20:24 EDT    2.93   4.17   13   68   18  63.3  71.2 1025.2 -9.9 -9.999 -99.9 -99.99 -9.99
2019/09/18 20:30 EDT    3.03   4.28   10   74   14  63.3  71.2 1025.3 -9.9 -9.999 -99.9 -99.99 -9.99
2019/09/18 20:36 EDT    3.13   4.38   13   83   18  63.3  71.2 1025.3 -9.9 -9.999 -99.9 -99.99 -9.99
2019/09/18 20:42 EDT    3.23   4.46   11   72   18  63.1  71.2 1025.4 -9.9 -9.999 -99.9 -99.99 -9.99
2019/09/18 20:48 EDT    3.33   4.54   13   76   17  63.1  71.2 1025.4 -9.9 -9.999 -99.9 -99.99 -9.99
2019/09/18 20:54 EDT    3.42   4.65   10   83   16  63.3  71.2 1025.5 -9.9 -9.999 -99.9 -99.99 -9.99
2019/09/18 21:00 EDT    3.51   4.74   13   77   18  63.0  71.1 1025.7 -9.9 -9.999 -99.9 -99.99 -9.99
2019/09/18 21:06 EDT    3.59   4.84   11   83   15  63.0  71.1 1025.7 -9.9 -9.999 -99.9 -99.99 -9.99
2019/09/18 21:12 EDT    3.67   4.90   12   81   18  63.0  71.1 1025.8 -9.9 -9.999 -99.9 -99.99 -9.99
2019/09/18 21:18 EDT    3.75   5.01    9   75   16  63.0  71.1 1025.9 -9.9 -9.999 -99.9 -99.99 -9.99
2019/09/18 21:24 EDT    3.82   5.10    8   80   15  63.0  71.1 1025.9 -9.9 -9.999 -99.9 -99.99 -9.99
2019/09/18 21:30 EDT    3.89   5.17    9   83   16  62.8  71.2 1026.0 -9.9 -9.999 -99.9 -99.99 -9.99
2019/09/18 21:36 EDT    3.96   5.27    9   84   16  62.8  71.2 1026.0 -9.9 -9.999 -99.9 -99.99 -9.99
2019/09/18 21:42 EDT    4.02   5.33   11   80   15  62.8  71.2 1026.0 -9.9 -9.999 -99.9 -99.99 -9.99
2019/09/18 21:48 EDT    4.08   5.39    9   82   17  62.8  71.2 1026.0 -9.9 -9.999 -99.9 -99.99 -9.99
2019/09/18 21:54 EDT    4.13   5.47   13   76   17  62.8  71.2 1026.0 -9.9 -9.999 -99.9 -99.99 -9.99
2019/09/18 22:00 EDT    4.18   5.54   12   80   18  62.8  71.2 1026.1 -9.9 -9.999 -99.9 -99.99 -9.99
2019/09/18 22:06 EDT    4.22   5.57   12   77   17  62.8  71.1 1026.1 -9.9 -9.999 -99.9 -99.99 -9.99
2019/09/18 22:12 EDT    4.26   5.65   12   76   16  62.6  71.1 1026.1 -9.9 -9.999 -99.9 -99.99 -9.99
2019/09/18 22:18 EDT    4.30   5.69   13   71   19  62.6  71.1 1026.2 -9.9 -9.999 -99.9 -99.99 -9.99
2019/09/18 22:24 EDT    4.34   5.72   12   70   18  62.6  71.2 1026.2 -9.9 -9.999 -99.9 -99.99 -9.99
2019/09/18 22:30 EDT    4.37   5.76   11   69   16  62.4  71.2 1026.2 -9.9 -9.999 -99.9 -99.99 -9.99
2019/09/18 22:36 EDT    4.39   5.83   12   74   18  62.4  71.2 1026.1 -9.9 -9.999 -99.9 -99.99 -9.99
2019/09/18 22:42 EDT    4.42   5.86   12   78   18  62.4  71.2 1026.1 -9.9 -9.999 -99.9 -99.99 -9.99
2019/09/18 22:48 EDT    4.44   5.91   13   75   20  62.2  71.1 1026.1 -9.9 -9.999 -99.9 -99.99 -9.99
2019/09/18 22:54 EDT    4.46   5.92   12   73   21  62.2  71.1 1026.1 -9.9 -9.999 -99.9 -99.99 -9.99
2019/09/18 23:00 EDT    4.47   6.00   12   81   17  62.2  71.1 1026.1 -9.9 -9.999 -99.9 -99.99 -9.99
2019/09/18 23:06 EDT    4.48   6.00   12   68   17  62.1  71.1 1026.2 -9.9 -9.999 -99.9 -99.99 -9.99
2019/09/18 23:12 EDT    4.49   6.02   11   81   16  62.2  71.1 1026.2 -9.9 -9.999 -99.9 -99.99 -9.99
2019/09/18 23:18 EDT    4.49   6.04   10   83   17  61.9  71.1 1026.2 -9.9 -9.999 -99.9 -99.99 -9.99
2019/09/18 23:24 EDT    4.49   6.06    9   80   14  61.7  71.1 1026.2 -9.9 -9.999 -99.9 -99.99 -9.99
2019/09/18 23:30 EDT    4.49   6.04   13   76   18  61.7  71.1 1026.3 -9.9 -9.999 -99.9 -99.99 -9.99
2019/09/18 23:36 EDT    4.48   6.05   11   74   16  61.7  71.1 1026.3 -9.9 -9.999 -99.9 -99.99 -9.99
2019/09/18 23:42 EDT    4.47   6.03   14   77   18  61.3  71.1 1026.4 -9.9 -9.999 -99.9 -99.99 -9.99
2019/09/18 23:48 EDT    4.45   6.00   11   77   16  61.3  71.1 1026.4 -9.9 -9.999 -99.9 -99.99 -9.99
2019/09/18 23:54 EDT    4.43   5.99   10   79   17  61.3  70.9 1026.5 -9.9 -9.999 -99.9 -99.99 -9.99
2019/09/19 00:00 EDT    4.41   5.97   12   82   19  61.0  71.1 1026.5 -9.9 -9.999 -99.9 -99.99 -9.99
2019/09/19 00:06 EDT    4.38   5.93   12   82   19  60.8  70.9 1026.5 -9.9 -9.999 -99.9 -99.99 -9.99
2019/09/19 00:12 EDT    4.35   5.90   13   77   16  60.8  70.9 1026.5 -9.9 -9.999 -99.9 -99.99 -9.99
2019/09/19 00:18 EDT    4.31   5.83   11   86   16  60.6  70.9 1026.5 -9.9 -9.999 -99.9 -99.99 -9.99
2019/09/19 00:24 EDT    4.27   5.77   11   86   16  60.4  70.9 1026.6 -9.9 -9.999 -99.9 -99.99 -9.99
2019/09/19 00:30 EDT    4.22   5.72   11   82   15  60.3  70.9 1026.5 -9.9 -9.999 -99.9 -99.99 -9.99
2019/09/19 00:36 EDT    4.17   5.64   13   69   17  60.3  70.9 1026.6 -9.9 -9.999 -99.9 -99.99 -9.99
2019/09/19 00:42 EDT    4.11   5.57   12   66   19  60.1  70.9 1026.6 -9.9 -9.999 -99.9 -99.99 -9.99
2019/09/19 00:48 EDT    4.05   5.48   11   74   18  59.9  70.9 1026.6 -9.9 -9.999 -99.9 -99.99 -9.99
2019/09/19 00:54 EDT    3.98   5.39   14   59   19  59.5  70.9 1026.6 -9.9 -9.999 -99.9 -99.99 -9.99
2019/09/19 01:00 EDT    3.91   5.31   11   73   18  59.4  70.7 1026.7 -9.9 -9.999 -99.9 -99.99 -9.99
2019/09/19 01:06 EDT    3.83   5.21   13   68   19  59.4  70.7 1026.7 -9.9 -9.999 -99.9 -99.99 -9.99
2019/09/19 01:12 EDT    3.75   5.08   12   66   18  59.2  70.7 1026.7 -9.9 -9.999 -99.9 -99.99 -9.99
2019/09/19 01:18 EDT    3.67   4.98   12   62   17  59.2  70.7 1026.6 -9.9 -9.999 -99.9 -99.99 -9.99
2019/09/19 01:24 EDT    3.58   4.88   11   65   17  59.0  70.9 1026.8 -9.9 -9.999 -99.9 -99.99 -9.99
2019/09/19 01:30 EDT    3.48   4.76   14   67   19  58.8  70.9 1026.8 -9.9 -9.999 -99.9 -99.99 -9.99
2019/09/19 01:36 EDT    3.39   4.63   12   74   17  58.6  70.9 1026.8 -9.9 -9.999 -99.9 -99.99 -9.99
2019/09/19 01:42 EDT    3.29   4.54   12   60   16  58.5  70.7 1026.9 -9.9 -9.999 -99.9 -99.99 -9.99
2019/09/19 01:48 EDT    3.18   4.44   11   58   18  58.5  70.7 1027.0 -9.9 -9.999 -99.9 -99.99 -9.99
2019/09/19 01:54 EDT    3.08   4.32   10   55   16  58.3  70.7 1027.0 -9.9 -9.999 -99.9 -99.99 -9.99
2019/09/19 02:00 EDT    2.97   4.20   12   57   17  58.1  70.7 1026.9 -9.9 -9.999 -99.9 -99.99 -9.99
2019/09/19 02:06 EDT    2.87   4.11   15   61   19  57.9  70.9 1026.8 -9.9 -9.999 -99.9 -99.99 -9.99
2019/09/19 02:12 EDT    2.76   4.00   13   66   18  57.9  70.9 1026.9 -9.9 -9.999 -99.9 -99.99 -9.99
2019/09/19 02:18 EDT    2.65   3.87   12   65   18  57.7  70.9 1026.9 -9.9 -9.999 -99.9 -99.99 -9.99
2019/09/19 02:24 EDT    2.54   3.78   11   68   18  57.7  70.9 1026.8 -9.9 -9.999 -99.9 -99.99 -9.99
2019/09/19 02:30 EDT    2.43   3.66    9   55   14  57.6  70.9 1026.8 -9.9 -9.999 -99.9 -99.99 -9.99
2019/09/19 02:36 EDT    2.32   3.59    9   52   14  57.6  70.7 1026.9 -9.9 -9.999 -99.9 -99.99 -9.99
2019/09/19 02:42 EDT    2.21   3.49   11   59   16  57.4  70.7 1026.8 -9.9 -9.999 -99.9 -99.99 -9.99
2019/09/19 02:48 EDT    2.11   3.38   12   67   18  57.2  70.7 1026.8 -9.9 -9.999 -99.9 -99.99 -9.99
2019/09/19 02:54 EDT    2.00   3.30   11   60   16  57.4  70.7 1026.8 -9.9 -9.999 -99.9 -99.99 -9.99
2019/09/19 03:00 EDT    1.90   3.21   11   77   17  57.2  70.7 1026.8 -9.9 -9.999 -99.9 -99.99 -9.99
2019/09/19 03:06 EDT    1.80   3.12    8   71   13  57.2  70.7 1026.8 -9.9 -9.999 -99.9 -99.99 -9.99
2019/09/19 03:12 EDT    1.71   3.04   11   67   15  57.2  70.7 1026.7 -9.9 -9.999 -99.9 -99.99 -9.99
2019/09/19 03:18 EDT    1.62   2.95   10   73   16  57.2  70.7 1026.7 -9.9 -9.999 -99.9 -99.99 -9.99
2019/09/19 03:24 EDT    1.53   2.87   10   70   16  57.2  70.7 1026.6 -9.9 -9.999 -99.9 -99.99 -9.99
2019/09/19 03:30 EDT    1.44   2.78   13   68   16  57.2  70.5 1026.7 -9.9 -9.999 -99.9 -99.99 -9.99
2019/09/19 03:36 EDT    1.36   2.72   12   71   17  57.4  70.5 1026.7 -9.9 -9.999 -99.9 -99.99 -9.99
2019/09/19 03:42 EDT    1.28   2.64   12   80   17  57.7  70.5 1026.7 -9.9 -9.999 -99.9 -99.99 -9.99
2019/09/19 03:48 EDT    1.21   2.55   11   82   19  57.7  70.5 1026.6 -9.9 -9.999 -99.9 -99.99 -9.99
2019/09/19 03:54 EDT    1.14   2.49   12   81   18  57.6  70.5 1026.5 -9.9 -9.999 -99.9 -99.99 -9.99
2019/09/19 04:00 EDT    1.08   2.44   13   78   20  57.7  70.5 1026.7 -9.9 -9.999 -99.9 -99.99 -9.99
2019/09/19 04:06 EDT    1.02   2.37   12   74   17  57.7  70.5 1026.7 -9.9 -9.999 -99.9 -99.99 -9.99
2019/09/19 04:12 EDT    0.96   2.33   12   65   17  57.6  70.5 1026.7 -9.9 -9.999 -99.9 -99.99 -9.99
2019/09/19 04:18 EDT    0.91   2.28   11   71   17  57.6  70.3 1026.7 -9.9 -9.999 -99.9 -99.99 -9.99
2019/09/19 04:24 EDT    0.86   2.23   11   63   18  57.4  70.3 1026.7 -9.9 -9.999 -99.9 -99.99 -9.99
2019/09/19 04:30 EDT    0.82   2.18   14   66   17  57.4  70.3 1026.7 -9.9 -9.999 -99.9 -99.99 -9.99
2019/09/19 04:36 EDT    0.78   2.17   10   67   17  57.4  70.3 1026.6 -9.9 -9.999 -99.9 -99.99 -9.99
2019/09/19 04:42 EDT    0.75   2.12   11   63   16  57.4  70.3 1026.5 -9.9 -9.999 -99.9 -99.99 -9.99
2019/09/19 04:48 EDT    0.72   2.07   10   65   13  57.2  70.3 1026.6 -9.9 -9.999 -99.9 -99.99 -9.99
2019/09/19 04:54 EDT    0.70   2.05    9   60   15  57.0  70.3 1026.5 -9.9 -9.999 -99.9 -99.99 -9.99
2019/09/19 05:00 EDT    0.68   2.03   10   64   13  56.7  70.2 1026.4 -9.9 -9.999 -99.9 -99.99 -9.99
2019/09/19 05:06 EDT    0.66   1.99    9   72   16  56.8  70.2 1026.6 -9.9 -9.999 -99.9 -99.99 -9.99
2019/09/19 05:12 EDT    0.65   1.96    9   66   15  56.7  70.2 1026.7 -9.9 -9.999 -99.9 -99.99 -9.99
2019/09/19 05:18 EDT    0.64   1.93    8   65   12  56.7  70.2 1026.7 -9.9 -9.999 -99.9 -99.99 -9.99
2019/09/19 05:24 EDT    0.64   1.91    9   60   14  56.5  70.2 1026.7 -9.9 -9.999 -99.9 -99.99 -9.99
2019/09/19 05:30 EDT    0.65   1.89   10   53   16  56.5  70.2 1026.7 -9.9 -9.999 -99.9 -99.99 -9.99
2019/09/19 05:36 EDT    0.66   1.89    8   62   15  56.5  70.2 1026.8 -9.9 -9.999 -99.9 -99.99 -9.99
2019/09/19 05:42 EDT    0.67   1.88    9   59   13  56.5  70.2 1026.9 -9.9 -9.999 -99.9 -99.99 -9.99
2019/09/19 05:48 EDT    0.69   1.86   11   70   13  56.3  70.2 1027.0 -9.9 -9.999 -99.9 -99.99 -9.99
2019/09/19 05:54 EDT    0.72   1.86   10   64   13  56.3  70.2 1027.0 -9.9 -9.999 -99.9 -99.99 -9.99
2019/09/19 06:00 EDT    0.75   1.89    9   62   17  56.3  70.2 1027.0 -9.9 -9.999 -99.9 -99.99 -9.99
2019/09/19 06:06 EDT    0.78   1.90   12   63   17  56.3  70.0 1027.1 -9.9 -9.999 -99.9 -99.99 -9.99
2019/09/19 06:12 EDT    0.82   1.94   12   61   17  56.3  70.0 1026.9 -9.9 -9.999 -99.9 -99.99 -9.99
2019/09/19 06:18 EDT    0.87   1.96   11   42   15  56.1  70.0 1027.0 -9.9 -9.999 -99.9 -99.99 -9.99
2019/09/19 06:24 EDT    0.92   2.02    8   51   12  56.1  70.0 1027.1 -9.9 -9.999 -99.9 -99.99 -9.99
2019/09/19 06:30 EDT    0.98   2.11    8   68   14  55.9  70.0 1027.1 -9.9 -9.999 -99.9 -99.99 -9.99
2019/09/19 06:36 EDT    1.05   2.17    8   62   13  56.1  70.0 1027.1 -9.9 -9.999 -99.9 -99.99 -9.99
2019/09/19 06:42 EDT    1.12   2.23    9   55   15  56.1  70.0 1027.2 -9.9 -9.999 -99.9 -99.99 -9.99
2019/09/19 06:48 EDT    1.19   2.31    5   49   11  56.1  70.0 1027.4 -9.9 -9.999 -99.9 -99.99 -9.99
2019/09/19 06:54 EDT    1.27   2.40    5   60   10  55.9  70.0 1027.5 -9.9 -9.999 -99.9 -99.99 -9.99
2019/09/19 07:00 EDT    1.36   2.48    6   48   12  56.1  69.8 1027.4 -9.9 -9.999 -99.9 -99.99 -9.99
2019/09/19 07:06 EDT    1.45   2.55    9   42   12  56.1  69.8 1027.4 -9.9 -9.999 -99.9 -99.99 -9.99
2019/09/19 07:12 EDT    1.55   2.63    7   54   13  56.1  69.8 1027.5 -9.9 -9.999 -99.9 -99.99 -9.99
2019/09/19 07:18 EDT    1.65   2.72    6   53   12  56.3  69.8 1027.5 -9.9 -9.999 -99.9 -99.99 -9.99
2019/09/19 07:24 EDT    1.75   2.79    8   52   13  56.5  69.8 1027.6 -9.9 -9.999 -99.9 -99.99 -9.99
2019/09/19 07:30 EDT    1.86   2.87    8   54   11  56.7  69.8 1027.6 -9.9 -9.999 -99.9 -99.99 -9.99
2019/09/19 07:36 EDT    1.97   2.98    6   39   10  56.8  69.8 1027.6 -9.9 -9.999 -99.9 -99.99 -9.99
2019/09/19 07:42 EDT    2.09   3.08    6   43    8  57.0  69.8 1027.6 -9.9 -9.999 -99.9 -99.99 -9.99
2019/09/19 07:48 EDT    2.21   3.18    6   34   11  57.2  69.8 1027.7 -9.9 -9.999 -99.9 -99.99 -9.99
2019/09/19 07:54 EDT    2.32   3.29    6   37   12  57.4  69.8 1027.8 -9.9 -9.999 -99.9 -99.99 -9.99
2019/09/19 08:00 EDT    2.45   3.40    8   28   11  57.2  69.8 1027.9 -9.9 -9.999 -99.9 -99.99 -9.99
2019/09/19 08:06 EDT    2.57   3.48    6   44   10  57.0  69.8 1027.9 -9.9 -9.999 -99.9 -99.99 -9.99
2019/09/19 08:12 EDT    2.69   3.62    6   51    9  57.6  69.8 1027.9 -9.9 -9.999 -99.9 -99.99 -9.99
2019/09/19 08:18 EDT    2.82   3.72    6   38   10  57.4  69.8 1028.0 -9.9 -9.999 -99.9 -99.99 -9.99
2019/09/19 08:24 EDT    2.94   3.81    9   43   13  57.6  69.8 1028.1 -9.9 -9.999 -99.9 -99.99 -9.99
2019/09/19 08:30 EDT    3.06   3.89    6   38   12  57.6  69.6 1028.1 -9.9 -9.999 -99.9 -99.99 -9.99
2019/09/19 08:36 EDT    3.18   4.02    6   52   10  57.9  69.6 1028.1 -9.9 -9.999 -99.9 -99.99 -9.99
2019/09/19 08:42 EDT    3.30   4.14    7   44   11  58.3  69.6 1028.2 -9.9 -9.999 -99.9 -99.99 -9.99
2019/09/19 08:48 EDT    3.42   4.20    6   55   12  57.9  69.6 1028.3 -9.9 -9.999 -99.9 -99.99 -9.99
2019/09/19 08:54 EDT    3.53   4.31    7   70   10  58.5  69.6 1028.2 -9.9 -9.999 -99.9 -99.99 -9.99
2019/09/19 09:00 EDT    3.64   4.42    9   44   12  57.9  69.8 1028.2 -9.9 -9.999 -99.9 -99.99 -9.99
2019/09/19 09:06 EDT    3.75   4.52    7   45   12  57.7  69.8 1028.3 -9.9 -9.999 -99.9 -99.99 -9.99
2019/09/19 09:12 EDT    3.85   4.58    7   65   12  58.1  69.8 1028.3 -9.9 -9.999 -99.9 -99.99 -9.99
2019/09/19 09:18 EDT    3.95   4.69    7   55   10  57.7  69.8 1028.4 -9.9 -9.999 -99.9 -99.99 -9.99
2019/09/19 09:24 EDT    4.04   4.80    7   44   12  57.6  69.8 1028.6 -9.9 -9.999 -99.9 -99.99 -9.99
2019/09/19 09:30 EDT    4.13   4.85    7   51    9  58.3  69.8 1028.7 -9.9 -9.999 -99.9 -99.99 -9.99
2019/09/19 09:36 EDT    4.22   4.93    5   86   11  58.3  69.8 1028.7 -9.9 -9.999 -99.9 -99.99 -9.99
2019/09/19 09:42 EDT    4.30   5.03    5   70   11  57.9  69.8 1028.7 -9.9 -9.999 -99.9 -99.99 -9.99
2019/09/19 09:48 EDT    4.37   5.07    7   40   10  57.9  70.0 1028.8 -9.9 -9.999 -99.9 -99.99 -9.99
2019/09/19 09:54 EDT    4.44   5.12    5   68   10  58.1  70.0 1028.8 -9.9 -9.999 -99.9 -99.99 -9.99
2019/09/19 10:00 EDT    4.51   5.22    6   50   10  58.3  70.0 1028.7 -9.9 -9.999 -99.9 -99.99 -9.99
2019/09/19 10:06 EDT    4.57   5.26    7   39   13  58.1  70.0 1028.7 -9.9 -9.999 -99.9 -99.99 -9.99
2019/09/19 10:12 EDT    4.63   5.28    4   55   12  58.3  70.0 1028.7 -9.9 -9.999 -99.9 -99.99 -9.99
2019/09/19 10:18 EDT    4.68   5.36    6   71   11  58.5  70.0 1028.7 -9.9 -9.999 -99.9 -99.99 -9.99
2019/09/19 10:24 EDT    4.72   5.44    5   56    8  58.6  70.2 1028.7 -9.9 -9.999 -99.9 -99.99 -9.99
2019/09/19 10:30 EDT    4.77   5.49    6   24   11  58.8  70.2 1028.7 -9.9 -9.999 -99.9 -99.99 -9.99
2019/09/19 10:36 EDT    4.80   5.51    6   79    9  59.0  70.2 1028.7 -9.9 -9.999 -99.9 -99.99 -9.99
2019/09/19 10:42 EDT    4.84   5.60    4   29   10  58.8  70.2 1028.7 -9.9 -9.999 -99.9 -99.99 -9.99
2019/09/19 10:48 EDT    4.87   5.65    8   46   11  59.0  70.2 1028.6 -9.9 -9.999 -99.9 -99.99 -9.99
2019/09/19 10:54 EDT    4.89   5.66    3   57    8  58.6  70.2 1028.7 -9.9 -9.999 -99.9 -99.99 -9.99
2019/09/19 11:00 EDT    4.91   5.74    5   85    7  59.0  70.3 1028.7 -9.9 -9.999 -99.9 -99.99 -9.99
2019/09/19 11:06 EDT    4.93   5.78    4   80    8  59.5  70.2 1028.7 -9.9 -9.999 -99.9 -99.99 -9.99
2019/09/19 11:12 EDT    4.95   5.78    6   54    9  59.5  70.2 1028.7 -9.9 -9.999 -99.9 -99.99 -9.99
2019/09/19 11:18 EDT    4.96   5.81    6   75    8  59.0  70.2 1028.6 -9.9 -9.999 -99.9 -99.99 -9.99
2019/09/19 11:24 EDT    4.96   5.86    3   48    9  59.2  70.2 1028.6 -9.9 -9.999 -99.9 -99.99 -9.99
2019/09/19 11:30 EDT    4.97   5.88    4   60    8  59.7  70.2 1028.5 -9.9 -9.999 -99.9 -99.99 -9.99
2019/09/19 11:36 EDT    4.96   5.86    6   96    9  59.7  70.2 1028.5 -9.9 -9.999 -99.9 -99.99 -9.99
2019/09/19 11:42 EDT    4.96   5.90    1  358    6  59.2  70.2 1028.4 -9.9 -9.999 -99.9 -99.99 -9.99
2019/09/19 11:48 EDT    4.95   5.91    3   63    7  60.3  70.2 1028.3 -9.9 -9.999 -99.9 -99.99 -9.99
2019/09/19 11:54 EDT    4.94   5.92    4  135    7  60.3  70.2 1028.3 -9.9 -9.999 -99.9 -99.99 -9.99
2019/09/19 12:00 EDT    4.93   5.90    4   65   10  60.3  70.3 1028.3 -9.9 -9.999 -99.9 -99.99 -9.99
2019/09/19 12:06 EDT    4.91   5.93    4  133    5  60.8  70.3 1028.3 -9.9 -9.999 -99.9 -99.99 -9.99
2019/09/19 12:12 EDT    4.88   5.91    1  166    4  60.4  70.3 1028.2 -9.9 -9.999 -99.9 -99.99 -9.99
2019/09/19 12:18 EDT    4.86   5.90    3  186    5  61.2  70.3 1028.1 -9.9 -9.999 -99.9 -99.99 -9.99
2019/09/19 12:24 EDT    4.82   5.90    4  212    5  60.1  70.3 1028.0 -9.9 -9.999 -99.9 -99.99 -9.99
2019/09/19 12:30 EDT    4.79   5.83    4  258    5  60.1  70.3 1027.9 -9.9 -9.999 -99.9 -99.99 -9.99
2019/09/19 12:36 EDT    4.75   5.78    4  249    5  60.3  70.3 1027.9 -9.9 -9.999 -99.9 -99.99 -9.99
2019/09/19 12:42 EDT    4.70   5.74    4  254    7  60.3  70.5 1027.9 -9.9 -9.999 -99.9 -99.99 -9.99
2019/09/19 12:48 EDT    4.65   5.68    4  240    7  60.3  70.5 1027.8 -9.9 -9.999 -99.9 -99.99 -9.99
2019/09/19 12:54 EDT    4.60   5.58    4  244    7  59.9  70.5 1027.8 -9.9 -9.999 -99.9 -99.99 -9.99
2019/09/19 13:00 EDT    4.54   5.53    5  215    7  60.4  70.3 1027.7 -9.9 -9.999 -99.9 -99.99 -9.99
2019/09/19 13:06 EDT    4.48   5.44    4  221    7  60.1  70.5 1027.6 -9.9 -9.999 -99.9 -99.99 -9.99
2019/09/19 13:12 EDT    4.41   5.36    5  234    7  60.3  70.5 1027.6 -9.9 -9.999 -99.9 -99.99 -9.99
2019/09/19 13:18 EDT    4.34   5.26    7  220    9  60.1  70.5 1027.5 -9.9 -9.999 -99.9 -99.99 -9.99
2019/09/19 13:24 EDT    4.26   5.22    5  228    8  59.7  70.5 1027.5 -9.9 -9.999 -99.9 -99.99 -9.99
2019/09/19 13:30 EDT    4.18   5.09    5  239    7  60.1  70.5 1027.5 -9.9 -9.999 -99.9 -99.99 -9.99
2019/09/19 13:36 EDT    4.10   5.00    5  218    7  60.3  70.5 1027.5 -9.9 -9.999 -99.9 -99.99 -9.99
2019/09/19 13:42 EDT    4.01   4.91    5  197    7  60.4  70.5 1027.5 -9.9 -9.999 -99.9 -99.99 -9.99
2019/09/19 13:48 EDT    3.92   4.81    4  170    7  60.4  70.5 1027.4 -9.9 -9.999 -99.9 -99.99 -9.99
2019/09/19 13:54 EDT    3.82   4.68    4  183    6  61.0  70.5 1027.4 -9.9 -9.999 -99.9 -99.99 -9.99
2019/09/19 14:00 EDT    3.72   4.59    4  195    5  61.0  70.5 1027.3 -9.9 -9.999 -99.9 -99.99 -9.99
2019/09/19 14:06 EDT    3.62   4.50    5  212    6  61.3  70.5 1027.3 -9.9 -9.999 -99.9 -99.99 -9.99
2019/09/19 14:12 EDT    3.52   4.37    3  215    6  61.5  70.7 1027.3 -9.9 -9.999 -99.9 -99.99 -9.99
2019/09/19 14:18 EDT    3.42   4.27    5  198    6  61.9  70.7 1027.3 -9.9 -9.999 -99.9 -99.99 -9.99
2019/09/19 14:24 EDT    3.31   4.17    4  195    5  61.9  70.9 1027.3 -9.9 -9.999 -99.9 -99.99 -9.99
2019/09/19 14:30 EDT    3.20   4.06    5  211    6  62.2  70.9 1027.3 -9.9 -9.999 -99.9 -99.99 -9.99
2019/09/19 14:36 EDT    3.10   3.94    5  212    7  62.2  70.9 1027.1 -9.9 -9.999 -99.9 -99.99 -9.99
2019/09/19 14:42 EDT    2.99   3.84    4  200    6  62.4  70.9 1027.1 -9.9 -9.999 -99.9 -99.99 -9.99
2019/09/19 14:48 EDT    2.88   3.74    4  201    5  62.2  70.9 1027.1 -9.9 -9.999 -99.9 -99.99 -9.99
2019/09/19 14:54 EDT    2.77   3.61    4  228    5  62.6  71.1 1027.0 -9.9 -9.999 -99.9 -99.99 -9.99
2019/09/19 15:00 EDT    2.67   3.50    5  235    6  62.8  71.1 1027.0 -9.9 -9.999 -99.9 -99.99 -9.99
2019/09/19 15:06 EDT    2.56   3.41    5  191    7  62.8  71.2 1026.9 -9.9 -9.999 -99.9 -99.99 -9.99
2019/09/19 15:12 EDT    2.46   3.30    5  213    6  62.8  71.2 1026.8 -9.9 -9.999 -99.9 -99.99 -9.99
2019/09/19 15:18 EDT    2.36   3.16    4  206    7  63.0  71.2 1026.7 -9.9 -9.999 -99.9 -99.99 -9.99
2019/09/19 15:24 EDT    2.26   3.08    4  208    6  63.0  71.4 1026.8 -9.9 -9.999 -99.9 -99.99 -9.99
2019/09/19 15:30 EDT    2.17   2.99    4  213    6  63.3  71.4 1026.7 -9.9 -9.999 -99.9 -99.99 -9.99
2019/09/19 15:36 EDT    2.08   2.87    4  207    6  63.5  71.4 1026.6 -9.9 -9.999 -99.9 -99.99 -9.99
2019/09/19 15:42 EDT    1.99   2.79    4  180    5  63.5  71.4 1026.6 -9.9 -9.999 -99.9 -99.99 -9.99
2019/09/19 15:48 EDT    1.90   2.68    2  226    4  63.7  71.6 1026.7 -9.9 -9.999 -99.9 -99.99 -9.99
2019/09/19 15:54 EDT    1.82   2.62    2  210    4  64.0  71.6 1026.6 -9.9 -9.999 -99.9 -99.99 -9.99
2019/09/19 16:00 EDT    1.74   2.52    2  201    3  64.2  71.6 1026.4 -9.9 -9.999 -99.9 -99.99 -9.99
2019/09/19 16:06 EDT    1.67   2.43    2  251    4  64.6  71.6 1026.4 -9.9 -9.999 -99.9 -99.99 -9.99
2019/09/19 16:12 EDT    1.59   2.37    3  240    3  65.8  71.6 1026.4 -9.9 -9.999 -99.9 -99.99 -9.99
2019/09/19 16:18 EDT    1.53   2.28    1  202    3  65.3  71.6 1026.4 -9.9 -9.999 -99.9 -99.99 -9.99
2019/09/19 16:24 EDT    1.46   2.21    3  205    3  65.3  71.6 1026.4 -9.9 -9.999 -99.9 -99.99 -9.99
2019/09/19 16:30 EDT    1.41   2.14    3  176    4  65.1  71.6 1026.4 -9.9 -9.999 -99.9 -99.99 -9.99
2019/09/19 16:36 EDT    1.35   2.11    2  225    4  64.9  71.6 1026.4 -9.9 -9.999 -99.9 -99.99 -9.99
2019/09/19 16:42 EDT    1.30   2.03    2  177    3  65.7  71.6 1026.4 -9.9 -9.999 -99.9 -99.99 -9.99
2019/09/19 16:48 EDT    1.25   1.96    2  220    3  65.5  71.6 1026.3 -9.9 -9.999 -99.9 -99.99 -9.99
2019/09/19 16:54 EDT    1.21   1.93    3  223    4  66.0  71.8 1026.3 -9.9 -9.999 -99.9 -99.99 -9.99
2019/09/19 17:00 EDT    1.16   1.89    2  206    3  66.0  71.8 1026.2 -9.9 -9.999 -99.9 -99.99 -9.99
2019/09/19 17:06 EDT    1.13   1.82    4  181    5  65.3  71.8 1026.1 -9.9 -9.999 -99.9 -99.99 -9.99
2019/09/19 17:12 EDT    1.09   1.79    4  185    6  65.3  71.8 1026.1 -9.9 -9.999 -99.9 -99.99 -9.99
2019/09/19 17:18 EDT    1.06   1.76    4  190    5  65.5  71.8 1026.1 -9.9 -9.999 -99.9 -99.99 -9.99
2019/09/19 17:24 EDT    1.04   1.71    4  187    5  65.5  71.8 1026.0 -9.9 -9.999 -99.9 -99.99 -9.99
2019/09/19 17:30 EDT    1.01   1.69    3  183    4  65.5  71.8 1026.0 -9.9 -9.999 -99.9 -99.99 -9.99
2019/09/19 17:36 EDT    0.99   1.67    4  175    4  65.7  72.0 1026.1 -9.9 -9.999 -99.9 -99.99 -9.99
2019/09/19 17:42 EDT    0.98   1.65    4  184    5  65.8  72.0 1026.0 -9.9 -9.999 -99.9 -99.99 -9.99
2019/09/19 17:48 EDT    0.97   1.63    3  160    5  65.8  72.0 1026.0 -9.9 -9.999 -99.9 -99.99 -9.99
2019/09/19 17:54 EDT    0.96   1.63    3  162    4  66.2  72.0 1026.1 -9.9 -9.999 -99.9 -99.99 -9.99
2019/09/19 18:00 EDT    0.95   1.64    5  141    6  66.4  72.0 1026.1 -9.9 -9.999 -99.9 -99.99 -9.99
2019/09/19 18:06 EDT    0.95   1.63    6  150    7  66.0  72.1 1026.2 -9.9 -9.999 -99.9 -99.99 -9.99
2019/09/19 18:12 EDT    0.96   1.65    6  161    6  65.1  72.1 1026.1 -9.9 -9.999 -99.9 -99.99 -9.99
2019/09/19 18:18 EDT    0.96   1.69    6  154    7  65.1  72.1 1026.1 -9.9 -9.999 -99.9 -99.99 -9.99
2019/09/19 18:24 EDT    0.98   1.68    6  167    7  65.1  72.1 1026.1 -9.9 -9.999 -99.9 -99.99 -9.99
2019/09/19 18:30 EDT    0.99   1.73    5  162    7  65.1  72.1 1026.1 -9.9 -9.999 -99.9 -99.99 -9.99
2019/09/19 18:36 EDT    1.01   1.79    6  167    7  64.9  72.3 1026.1 -9.9 -9.999 -99.9 -99.99 -9.99
2019/09/19 18:42 EDT    1.04   1.82    6  148    7  64.8  72.3 1026.0 -9.9 -9.999 -99.9 -99.99 -9.99
2019/09/19 18:48 EDT    1.07   1.86    7  174    8  64.2  72.3 1026.0 -9.9 -9.999 -99.9 -99.99 -9.99
2019/09/19 18:54 EDT    1.10   1.89    7  161    9  64.6  72.3 1026.0 -9.9 -9.999 -99.9 -99.99 -9.99
2019/09/19 19:00 EDT    1.14   1.97    8  175    9  64.4  72.3 1026.2 -9.9 -9.999 -99.9 -99.99 -9.99
2019/09/19 19:06 EDT    1.18   2.01    6  174    8  64.2  72.3 1026.1 -9.9 -9.999 -99.9 -99.99 -9.99
2019/09/19 19:12 EDT    1.23   2.05    7  175    8  64.2  72.3 1026.1 -9.9 -9.999 -99.9 -99.99 -9.99
2019/09/19 19:18 EDT    1.29   2.13    6  166    7  64.0  72.3 1026.0 -9.9 -9.999 -99.9 -99.99 -9.99
2019/09/19 19:24 EDT    1.35   2.22    6  169    8  63.9  72.3 1025.9 -9.9 -9.999 -99.9 -99.99 -9.99
2019/09/19 19:30 EDT    1.41   2.28    9  178   10  64.0  72.3 1025.9 -9.9 -9.999 -99.9 -99.99 -9.99
2019/09/19 19:36 EDT    1.48   2.36    9  182   10  63.9  72.3 1026.0 -9.9 -9.999 -99.9 -99.99 -9.99
2019/09/19 19:42 EDT    1.55   2.44    9  182   11  63.9  72.3 1026.0 -9.9 -9.999 -99.9 -99.99 -9.99
2019/09/19 19:48 EDT    1.62   2.56    9  183   10  63.9  72.3 1026.0 -9.9 -9.999 -99.9 -99.99 -9.99
2019/09/19 19:54 EDT    1.70   2.63    9  184   11  64.0  72.1 1026.0 -9.9 -9.999 -99.9 -99.99 -9.99
2019/09/19 20:00 EDT    1.78   2.72    8  187   10  63.7  72.1 1025.9 -9.9 -9.999 -99.9 -99.99 -9.99
2019/09/19 20:06 EDT    1.87   2.79    8  192    9  63.7  72.1 1025.9 -9.9 -9.999 -99.9 -99.99 -9.99
2019/09/19 20:12 EDT    1.96   2.90    8  185    9  63.9  72.1 1025.9 -9.9 -9.999 -99.9 -99.99 -9.99
2019/09/19 20:18 EDT    2.05   2.98    7  191   10  63.9  72.1 1025.9 -9.9 -9.999 -99.9 -99.99 -9.99
2019/09/19 20:24 EDT    2.14   3.05    8  181    9  63.9  72.1 1025.9 -9.9 -9.999 -99.9 -99.99 -9.99
2019/09/19 20:30 EDT    2.24   3.13    8  186    9  63.7  72.1 1025.9 -9.9 -9.999 -99.9 -99.99 -9.99
2019/09/19 20:36 EDT    2.33   3.23    8  187   10  63.5  72.1 1025.8 -9.9 -9.999 -99.9 -99.99 -9.99
2019/09/19 20:42 EDT    2.43   3.29    7  183    8  63.5  72.1 1025.6 -9.9 -9.999 -99.9 -99.99 -9.99
2019/09/19 20:48 EDT    2.53   3.39    6  165    9  63.5  72.1 1025.6 -9.9 -9.999 -99.9 -99.99 -9.99
2019/09/19 20:54 EDT    2.62   3.47    6  156    7  63.1  72.1 1025.6 -9.9 -9.999 -99.9 -99.99 -9.99
2019/09/19 21:00 EDT    2.72   3.56    9  180   11  62.8  72.1 1025.6 -9.9 -9.999 -99.9 -99.99 -9.99
2019/09/19 21:06 EDT    2.82   3.65    5  155   10  63.1  72.0 1025.6 -9.9 -9.999 -99.9 -99.99 -9.99
2019/09/19 21:12 EDT    2.91   3.75    9  194   10  62.1  72.0 1025.6 -9.9 -9.999 -99.9 -99.99 -9.99
2019/09/19 21:18 EDT    3.00   3.82    9  194   11  62.4  72.0 1025.6 -9.9 -9.999 -99.9 -99.99 -9.99
2019/09/19 21:24 EDT    3.09   3.86    9  199   11  62.2  72.0 1025.6 -9.9 -9.999 -99.9 -99.99 -9.99
2019/09/19 21:30 EDT    3.18   3.94   10  207   11  62.2  72.0 1025.7 -9.9 -9.999 -99.9 -99.99 -9.99
2019/09/19 21:36 EDT    3.27   4.02   10  209   11  62.2  72.0 1025.7 -9.9 -9.999 -99.9 -99.99 -9.99
2019/09/19 21:42 EDT    3.35   4.05    8  205   11  62.1  71.8 1025.7 -9.9 -9.999 -99.9 -99.99 -9.99
2019/09/19 21:48 EDT    3.43   4.10   10  208   11  61.9  71.8 1025.8 -9.9 -9.999 -99.9 -99.99 -9.99
2019/09/19 21:54 EDT    3.51   4.15    9  204   11  61.7  71.8 1025.8 -9.9 -9.999 -99.9 -99.99 -9.99
2019/09/19 22:00 EDT    3.58   4.21   10  201   12  61.9  71.8 1025.7 -9.9 -9.999 -99.9 -99.99 -9.99
2019/09/19 22:06 EDT    3.65   4.25   10  206   12  61.5  71.8 1025.6 -9.9 -9.999 -99.9 -99.99 -9.99
2019/09/19 22:12 EDT    3.71   4.29   11  206   13  61.9  71.8 1025.5 -9.9 -9.999 -99.9 -99.99 -9.99
2019/09/19 22:18 EDT    3.77   4.35   11  207   12  61.9  71.8 1025.4 -9.9 -9.999 -99.9 -99.99 -9.99
2019/09/19 22:24 EDT    3.83   4.41   11  210   12  62.1  71.8 1025.5 -9.9 -9.999 -99.9 -99.99 -9.99
2019/09/19 22:30 EDT    3.89   4.45   10  212   13  62.2  71.6 1025.5 -9.9 -9.999 -99.9 -99.99 -9.99
2019/09/19 22:36 EDT    3.94   4.53   11  218   11  62.2  71.6 1025.5 -9.9 -9.999 -99.9 -99.99 -9.99
2019/09/19 22:42 EDT    3.99   4.57   10  215   12  61.9  71.6 1025.5 -9.9 -9.999 -99.9 -99.99 -9.99
2019/09/19 22:48 EDT    4.03   4.66   12  215   13  61.0  71.6 1025.5 -9.9 -9.999 -99.9 -99.99 -9.99
2019/09/19 22:54 EDT    4.07   4.70   11  220   13  61.3  71.6 1025.4 -9.9 -9.999 -99.9 -99.99 -9.99
2019/09/19 23:00 EDT    4.11   4.73   12  224   13  61.3  71.6 1025.4 -9.9 -9.999 -99.9 -99.99 -9.99
2019/09/19 23:06 EDT    4.14   4.80   13  219   14  61.0  71.6 1025.4 -9.9 -9.999 -99.9 -99.99 -9.99
2019/09/19 23:12 EDT    4.17   4.83   13  225   14  61.0  71.6 1025.5 -9.9 -9.999 -99.9 -99.99 -9.99
2019/09/19 23:18 EDT    4.20   4.86   12  223   14  60.8  71.6 1025.5 -9.9 -9.999 -99.9 -99.99 -9.99
2019/09/19 23:24 EDT    4.22   4.92   13  219   14  61.0  71.4 1025.4 -9.9 -9.999 -99.9 -99.99 -9.99
2019/09/19 23:30 EDT    4.25   4.95   12  218   14  61.0  71.4 1025.4 -9.9 -9.999 -99.9 -99.99 -9.99
2019/09/19 23:36 EDT    4.26   4.98   12  224   13  61.2  71.4 1025.4 -9.9 -9.999 -99.9 -99.99 -9.99
2019/09/19 23:42 EDT    4.28   5.01   11  221   13  61.3  71.4 1025.3 -9.9 -9.999 -99.9 -99.99 -9.99
2019/09/19 23:48 EDT    4.29   5.06   10  221   12  61.2  71.4 1025.3 -9.9 -9.999 -99.9 -99.99 -9.99
2019/09/19 23:54 EDT    4.30 -99.99 -999 -999 -999 -99.9 -99.9 -999.9 -9.9 -9.999 -99.9 -99.99 -9.99
2019/09/20 00:00 EDT    4.31 -99.99 -999 -999 -999 -99.9 -99.9 -999.9 -9.9 -9.999 -99.9 -99.99 -9.99